<?xml version="1.0" encoding="utf-8"?>
<gpx xmlns:xsi="http://www.w3.org/2001/XMLSchema-instance" xmlns:xsd="http://www.w3.org/2001/XMLSchema" version="1.1" creator="Shapelink.com" xmlns="http://www.topografix.com/GPX/1/1" xmlns:gpxtpx="http://www.garmin.com/xmlschemas/TrackPointExtension/v1">
  <metadata>
    <name>Cykling 47.79 km, 2012-03-17</name>
    <desc></desc>
    <author><name>Alexander Engvall</name></author> 
    <time>2012-03-17T10:05:18Z</time>
  </metadata>
  <trk>
    <name>Cykling 47.79 km, 2012-03-17</name>
    <trkseg>
      <trkpt lat="59.4572578" lon="17.8052603">
        <ele>29.2</ele>
        <time>2012-03-17T10:05:18Z</time>
      </trkpt>
      <trkpt lat="59.457402" lon="17.8059021">
        <ele>29.6</ele>
        <time>2012-03-17T10:05:33Z</time>
      </trkpt>
      <trkpt lat="59.4577833" lon="17.8060792">
        <ele>27.8</ele>
        <time>2012-03-17T10:05:40Z</time>
      </trkpt>
      <trkpt lat="59.4581835" lon="17.8062423">
        <ele>26.4</ele>
        <time>2012-03-17T10:05:47Z</time>
      </trkpt>
      <trkpt lat="59.4585386" lon="17.8063708">
        <ele>23</ele>
        <time>2012-03-17T10:05:53Z</time>
      </trkpt>
      <trkpt lat="59.4589341" lon="17.8064678">
        <ele>22</ele>
        <time>2012-03-17T10:06:00Z</time>
      </trkpt>
      <trkpt lat="59.4593445" lon="17.8065392">
        <ele>22.8</ele>
        <time>2012-03-17T10:06:07Z</time>
      </trkpt>
      <trkpt lat="59.4597137" lon="17.8065961">
        <ele>21.8</ele>
        <time>2012-03-17T10:06:13Z</time>
      </trkpt>
      <trkpt lat="59.4601252" lon="17.8066618">
        <ele>21</ele>
        <time>2012-03-17T10:06:19Z</time>
      </trkpt>
      <trkpt lat="59.4604826" lon="17.8067065">
        <ele>20</ele>
        <time>2012-03-17T10:06:24Z</time>
      </trkpt>
      <trkpt lat="59.460851" lon="17.8067157">
        <ele>18.4</ele>
        <time>2012-03-17T10:06:29Z</time>
      </trkpt>
      <trkpt lat="59.4612383" lon="17.8066949">
        <ele>17</ele>
        <time>2012-03-17T10:06:34Z</time>
      </trkpt>
      <trkpt lat="59.4616461" lon="17.8066619">
        <ele>18.6</ele>
        <time>2012-03-17T10:06:40Z</time>
      </trkpt>
      <trkpt lat="59.4620434" lon="17.8066489">
        <ele>19.6</ele>
        <time>2012-03-17T10:06:46Z</time>
      </trkpt>
      <trkpt lat="59.4624584" lon="17.806625">
        <ele>22.4</ele>
        <time>2012-03-17T10:06:52Z</time>
      </trkpt>
      <trkpt lat="59.462841" lon="17.8065304">
        <ele>26.6</ele>
        <time>2012-03-17T10:06:58Z</time>
      </trkpt>
      <trkpt lat="59.463239" lon="17.8064639">
        <ele>25.8</ele>
        <time>2012-03-17T10:07:04Z</time>
      </trkpt>
      <trkpt lat="59.4635886" lon="17.8065148">
        <ele>24.4</ele>
        <time>2012-03-17T10:07:09Z</time>
      </trkpt>
      <trkpt lat="59.463658" lon="17.8065462">
        <ele>24.4</ele>
        <time>2012-03-17T10:07:10Z</time>
      </trkpt>
      <trkpt lat="59.4638521" lon="17.8066811">
        <ele>24.4</ele>
        <time>2012-03-17T10:07:13Z</time>
      </trkpt>
      <trkpt lat="59.4640203" lon="17.8069053">
        <ele>24</ele>
        <time>2012-03-17T10:07:16Z</time>
      </trkpt>
      <trkpt lat="59.464121" lon="17.8070998">
        <ele>23.8</ele>
        <time>2012-03-17T10:07:18Z</time>
      </trkpt>
      <trkpt lat="59.4642627" lon="17.8075845">
        <ele>24.2</ele>
        <time>2012-03-17T10:07:22Z</time>
      </trkpt>
      <trkpt lat="59.464302" lon="17.8078682">
        <ele>24.4</ele>
        <time>2012-03-17T10:07:24Z</time>
      </trkpt>
      <trkpt lat="59.4643148" lon="17.8080156">
        <ele>24.6</ele>
        <time>2012-03-17T10:07:25Z</time>
      </trkpt>
      <trkpt lat="59.4643159" lon="17.8083153">
        <ele>25</ele>
        <time>2012-03-17T10:07:27Z</time>
      </trkpt>
      <trkpt lat="59.4642776" lon="17.8090422">
        <ele>25.6</ele>
        <time>2012-03-17T10:07:32Z</time>
      </trkpt>
      <trkpt lat="59.4642771" lon="17.8098859">
        <ele>27.2</ele>
        <time>2012-03-17T10:07:38Z</time>
      </trkpt>
      <trkpt lat="59.4644391" lon="17.8106369">
        <ele>29</ele>
        <time>2012-03-17T10:07:44Z</time>
      </trkpt>
      <trkpt lat="59.4646194" lon="17.8113722">
        <ele>30.6</ele>
        <time>2012-03-17T10:07:50Z</time>
      </trkpt>
      <trkpt lat="59.4647925" lon="17.812067">
        <ele>32.4</ele>
        <time>2012-03-17T10:07:56Z</time>
      </trkpt>
      <trkpt lat="59.4649601" lon="17.8125745">
        <ele>33.4</ele>
        <time>2012-03-17T10:08:01Z</time>
      </trkpt>
      <trkpt lat="59.4650013" lon="17.8126534">
        <ele>33.4</ele>
        <time>2012-03-17T10:08:02Z</time>
      </trkpt>
      <trkpt lat="59.4653051" lon="17.8130504">
        <ele>33.6</ele>
        <time>2012-03-17T10:08:12Z</time>
      </trkpt>
      <trkpt lat="59.4655509" lon="17.8126538">
        <ele>32.4</ele>
        <time>2012-03-17T10:08:18Z</time>
      </trkpt>
      <trkpt lat="59.4655907" lon="17.8125464">
        <ele>32.2</ele>
        <time>2012-03-17T10:08:19Z</time>
      </trkpt>
      <trkpt lat="59.4658196" lon="17.8118751">
        <ele>32.4</ele>
        <time>2012-03-17T10:08:25Z</time>
      </trkpt>
      <trkpt lat="59.4660384" lon="17.8112392">
        <ele>31.4</ele>
        <time>2012-03-17T10:08:30Z</time>
      </trkpt>
      <trkpt lat="59.466318" lon="17.8105294">
        <ele>26.6</ele>
        <time>2012-03-17T10:08:35Z</time>
      </trkpt>
      <trkpt lat="59.4666005" lon="17.8100206">
        <ele>23.6</ele>
        <time>2012-03-17T10:08:39Z</time>
      </trkpt>
      <trkpt lat="59.4669423" lon="17.8096243">
        <ele>20.6</ele>
        <time>2012-03-17T10:08:43Z</time>
      </trkpt>
      <trkpt lat="59.4673358" lon="17.8093764">
        <ele>18.6</ele>
        <time>2012-03-17T10:08:47Z</time>
      </trkpt>
      <trkpt lat="59.4677524" lon="17.8093126">
        <ele>16.2</ele>
        <time>2012-03-17T10:08:51Z</time>
      </trkpt>
      <trkpt lat="59.4681428" lon="17.8094006">
        <ele>15.8</ele>
        <time>2012-03-17T10:08:55Z</time>
      </trkpt>
      <trkpt lat="59.4684168" lon="17.8095144">
        <ele>16.6</ele>
        <time>2012-03-17T10:08:59Z</time>
      </trkpt>
      <trkpt lat="59.4685134" lon="17.8096043">
        <ele>17.4</ele>
        <time>2012-03-17T10:09:01Z</time>
      </trkpt>
      <trkpt lat="59.4686056" lon="17.8097473">
        <ele>18.2</ele>
        <time>2012-03-17T10:09:03Z</time>
      </trkpt>
      <trkpt lat="59.4687416" lon="17.80994">
        <ele>19.4</ele>
        <time>2012-03-17T10:09:06Z</time>
      </trkpt>
      <trkpt lat="59.4688372" lon="17.8099586">
        <ele>19.8</ele>
        <time>2012-03-17T10:09:08Z</time>
      </trkpt>
      <trkpt lat="59.4689255" lon="17.8094176">
        <ele>21.2</ele>
        <time>2012-03-17T10:09:14Z</time>
      </trkpt>
      <trkpt lat="59.468926" lon="17.8092826">
        <ele>21.8</ele>
        <time>2012-03-17T10:09:15Z</time>
      </trkpt>
      <trkpt lat="59.4689324" lon="17.8091422">
        <ele>22</ele>
        <time>2012-03-17T10:09:16Z</time>
      </trkpt>
      <trkpt lat="59.4689889" lon="17.8085321">
        <ele>23.6</ele>
        <time>2012-03-17T10:09:20Z</time>
      </trkpt>
      <trkpt lat="59.4690737" lon="17.8077564">
        <ele>24.8</ele>
        <time>2012-03-17T10:09:25Z</time>
      </trkpt>
      <trkpt lat="59.4691723" lon="17.8070324">
        <ele>23.2</ele>
        <time>2012-03-17T10:09:30Z</time>
      </trkpt>
      <trkpt lat="59.4693035" lon="17.8063082">
        <ele>24.4</ele>
        <time>2012-03-17T10:09:35Z</time>
      </trkpt>
      <trkpt lat="59.4694603" lon="17.8056495">
        <ele>23.2</ele>
        <time>2012-03-17T10:09:39Z</time>
      </trkpt>
      <trkpt lat="59.4696213" lon="17.8049851">
        <ele>22.2</ele>
        <time>2012-03-17T10:09:43Z</time>
      </trkpt>
      <trkpt lat="59.4698037" lon="17.8042574">
        <ele>19.2</ele>
        <time>2012-03-17T10:09:47Z</time>
      </trkpt>
      <trkpt lat="59.4699909" lon="17.8034979">
        <ele>15.4</ele>
        <time>2012-03-17T10:09:51Z</time>
      </trkpt>
      <trkpt lat="59.4700784" lon="17.8029152">
        <ele>13</ele>
        <time>2012-03-17T10:09:54Z</time>
      </trkpt>
      <trkpt lat="59.4700905" lon="17.8027152">
        <ele>12.4</ele>
        <time>2012-03-17T10:09:55Z</time>
      </trkpt>
      <trkpt lat="59.4700451" lon="17.801893">
        <ele>9.2</ele>
        <time>2012-03-17T10:09:59Z</time>
      </trkpt>
      <trkpt lat="59.4697966" lon="17.8011457">
        <ele>6.2</ele>
        <time>2012-03-17T10:10:03Z</time>
      </trkpt>
      <trkpt lat="59.4697145" lon="17.8009809">
        <ele>5.6</ele>
        <time>2012-03-17T10:10:04Z</time>
      </trkpt>
      <trkpt lat="59.4694837" lon="17.8005145">
        <ele>3.8</ele>
        <time>2012-03-17T10:10:07Z</time>
      </trkpt>
      <trkpt lat="59.4692096" lon="17.7998766">
        <ele>1.6</ele>
        <time>2012-03-17T10:10:11Z</time>
      </trkpt>
      <trkpt lat="59.4690395" lon="17.7994734">
        <ele>2.2</ele>
        <time>2012-03-17T10:10:14Z</time>
      </trkpt>
      <trkpt lat="59.4689608" lon="17.7992098">
        <ele>3.6</ele>
        <time>2012-03-17T10:10:16Z</time>
      </trkpt>
      <trkpt lat="59.4689745" lon="17.7984676">
        <ele>6</ele>
        <time>2012-03-17T10:10:21Z</time>
      </trkpt>
      <trkpt lat="59.4691894" lon="17.7978857">
        <ele>6.6</ele>
        <time>2012-03-17T10:10:26Z</time>
      </trkpt>
      <trkpt lat="59.4693142" lon="17.7977075">
        <ele>6</ele>
        <time>2012-03-17T10:10:28Z</time>
      </trkpt>
      <trkpt lat="59.4695608" lon="17.7973876">
        <ele>5.2</ele>
        <time>2012-03-17T10:10:32Z</time>
      </trkpt>
      <trkpt lat="59.4699161" lon="17.7969275">
        <ele>4.6</ele>
        <time>2012-03-17T10:10:38Z</time>
      </trkpt>
      <trkpt lat="59.4702952" lon="17.7964649">
        <ele>2.8</ele>
        <time>2012-03-17T10:10:44Z</time>
      </trkpt>
      <trkpt lat="59.4706636" lon="17.7961836">
        <ele>1</ele>
        <time>2012-03-17T10:10:49Z</time>
      </trkpt>
      <trkpt lat="59.4710264" lon="17.7959187">
        <ele>0.2</ele>
        <time>2012-03-17T10:10:54Z</time>
      </trkpt>
      <trkpt lat="59.4713598" lon="17.7955159">
        <ele>0</ele>
        <time>2012-03-17T10:10:59Z</time>
      </trkpt>
      <trkpt lat="59.471707" lon="17.7951409">
        <ele>0</ele>
        <time>2012-03-17T10:11:04Z</time>
      </trkpt>
      <trkpt lat="59.4720831" lon="17.7948739">
        <ele>0</ele>
        <time>2012-03-17T10:11:09Z</time>
      </trkpt>
      <trkpt lat="59.4723136" lon="17.7946957">
        <ele>0</ele>
        <time>2012-03-17T10:11:12Z</time>
      </trkpt>
      <trkpt lat="59.4724374" lon="17.7944917">
        <ele>0</ele>
        <time>2012-03-17T10:11:14Z</time>
      </trkpt>
      <trkpt lat="59.4726186" lon="17.7938008">
        <ele>0</ele>
        <time>2012-03-17T10:11:19Z</time>
      </trkpt>
      <trkpt lat="59.4727259" lon="17.7930419">
        <ele>0</ele>
        <time>2012-03-17T10:11:24Z</time>
      </trkpt>
      <trkpt lat="59.4728388" lon="17.792297">
        <ele>0</ele>
        <time>2012-03-17T10:11:29Z</time>
      </trkpt>
      <trkpt lat="59.4729513" lon="17.7915488">
        <ele>0</ele>
        <time>2012-03-17T10:11:34Z</time>
      </trkpt>
      <trkpt lat="59.4730957" lon="17.7908702">
        <ele>0</ele>
        <time>2012-03-17T10:11:39Z</time>
      </trkpt>
      <trkpt lat="59.4732893" lon="17.7902524">
        <ele>0</ele>
        <time>2012-03-17T10:11:45Z</time>
      </trkpt>
      <trkpt lat="59.4734801" lon="17.7896101">
        <ele>2.6</ele>
        <time>2012-03-17T10:11:52Z</time>
      </trkpt>
      <trkpt lat="59.4736285" lon="17.7889463">
        <ele>5.8</ele>
        <time>2012-03-17T10:11:59Z</time>
      </trkpt>
      <trkpt lat="59.4737577" lon="17.7883294">
        <ele>3.8</ele>
        <time>2012-03-17T10:12:05Z</time>
      </trkpt>
      <trkpt lat="59.4737848" lon="17.7882283">
        <ele>3.6</ele>
        <time>2012-03-17T10:12:06Z</time>
      </trkpt>
      <trkpt lat="59.4738153" lon="17.7881299">
        <ele>3.6</ele>
        <time>2012-03-17T10:12:07Z</time>
      </trkpt>
      <trkpt lat="59.4740841" lon="17.7876863">
        <ele>3.8</ele>
        <time>2012-03-17T10:12:12Z</time>
      </trkpt>
      <trkpt lat="59.4744721" lon="17.7873427">
        <ele>3</ele>
        <time>2012-03-17T10:12:17Z</time>
      </trkpt>
      <trkpt lat="59.4748912" lon="17.7870288">
        <ele>2.4</ele>
        <time>2012-03-17T10:12:22Z</time>
      </trkpt>
      <trkpt lat="59.4753046" lon="17.7868257">
        <ele>2.6</ele>
        <time>2012-03-17T10:12:27Z</time>
      </trkpt>
      <trkpt lat="59.4757053" lon="17.786676">
        <ele>3</ele>
        <time>2012-03-17T10:12:32Z</time>
      </trkpt>
      <trkpt lat="59.4761003" lon="17.7865413">
        <ele>3.2</ele>
        <time>2012-03-17T10:12:37Z</time>
      </trkpt>
      <trkpt lat="59.4765028" lon="17.786444">
        <ele>2.6</ele>
        <time>2012-03-17T10:12:42Z</time>
      </trkpt>
      <trkpt lat="59.4769475" lon="17.7863206">
        <ele>1.8</ele>
        <time>2012-03-17T10:12:47Z</time>
      </trkpt>
      <trkpt lat="59.4773838" lon="17.7861892">
        <ele>0.8</ele>
        <time>2012-03-17T10:12:52Z</time>
      </trkpt>
      <trkpt lat="59.4777996" lon="17.7860466">
        <ele>0.6</ele>
        <time>2012-03-17T10:12:57Z</time>
      </trkpt>
      <trkpt lat="59.4781925" lon="17.7858637">
        <ele>1.2</ele>
        <time>2012-03-17T10:13:02Z</time>
      </trkpt>
      <trkpt lat="59.478553" lon="17.7856274">
        <ele>2.6</ele>
        <time>2012-03-17T10:13:07Z</time>
      </trkpt>
      <trkpt lat="59.4788917" lon="17.7853493">
        <ele>3.4</ele>
        <time>2012-03-17T10:13:12Z</time>
      </trkpt>
      <trkpt lat="59.479245" lon="17.7849634">
        <ele>4.4</ele>
        <time>2012-03-17T10:13:18Z</time>
      </trkpt>
      <trkpt lat="59.4795454" lon="17.7845678">
        <ele>6.6</ele>
        <time>2012-03-17T10:13:24Z</time>
      </trkpt>
      <trkpt lat="59.4798599" lon="17.7840357">
        <ele>10.2</ele>
        <time>2012-03-17T10:13:31Z</time>
      </trkpt>
      <trkpt lat="59.4801085" lon="17.7834739">
        <ele>13</ele>
        <time>2012-03-17T10:13:38Z</time>
      </trkpt>
      <trkpt lat="59.4803197" lon="17.7828915">
        <ele>10.8</ele>
        <time>2012-03-17T10:13:44Z</time>
      </trkpt>
      <trkpt lat="59.4805109" lon="17.7822591">
        <ele>12.2</ele>
        <time>2012-03-17T10:13:50Z</time>
      </trkpt>
      <trkpt lat="59.4806814" lon="17.7815981">
        <ele>12.8</ele>
        <time>2012-03-17T10:13:56Z</time>
      </trkpt>
      <trkpt lat="59.4808488" lon="17.7809381">
        <ele>13.2</ele>
        <time>2012-03-17T10:14:02Z</time>
      </trkpt>
      <trkpt lat="59.4810316" lon="17.7801906">
        <ele>14.2</ele>
        <time>2012-03-17T10:14:09Z</time>
      </trkpt>
      <trkpt lat="59.4812015" lon="17.7794847">
        <ele>16.2</ele>
        <time>2012-03-17T10:14:16Z</time>
      </trkpt>
      <trkpt lat="59.4813694" lon="17.7787936">
        <ele>16.6</ele>
        <time>2012-03-17T10:14:23Z</time>
      </trkpt>
      <trkpt lat="59.4815376" lon="17.7781133">
        <ele>17</ele>
        <time>2012-03-17T10:14:30Z</time>
      </trkpt>
      <trkpt lat="59.4816968" lon="17.7774326">
        <ele>18.6</ele>
        <time>2012-03-17T10:14:37Z</time>
      </trkpt>
      <trkpt lat="59.4818578" lon="17.7767277">
        <ele>19.4</ele>
        <time>2012-03-17T10:14:44Z</time>
      </trkpt>
      <trkpt lat="59.4819849" lon="17.7760329">
        <ele>22.4</ele>
        <time>2012-03-17T10:14:50Z</time>
      </trkpt>
      <trkpt lat="59.4820895" lon="17.7753617">
        <ele>25</ele>
        <time>2012-03-17T10:14:56Z</time>
      </trkpt>
      <trkpt lat="59.4821614" lon="17.7746675">
        <ele>28.6</ele>
        <time>2012-03-17T10:15:03Z</time>
      </trkpt>
      <trkpt lat="59.4822435" lon="17.7739905">
        <ele>31.4</ele>
        <time>2012-03-17T10:15:10Z</time>
      </trkpt>
      <trkpt lat="59.4823344" lon="17.7732423">
        <ele>32.4</ele>
        <time>2012-03-17T10:15:17Z</time>
      </trkpt>
      <trkpt lat="59.4824172" lon="17.7725112">
        <ele>32.2</ele>
        <time>2012-03-17T10:15:23Z</time>
      </trkpt>
      <trkpt lat="59.4825108" lon="17.7717126">
        <ele>31.2</ele>
        <time>2012-03-17T10:15:29Z</time>
      </trkpt>
      <trkpt lat="59.4825902" lon="17.7710133">
        <ele>30</ele>
        <time>2012-03-17T10:15:34Z</time>
      </trkpt>
      <trkpt lat="59.4826715" lon="17.7702935">
        <ele>28.2</ele>
        <time>2012-03-17T10:15:39Z</time>
      </trkpt>
      <trkpt lat="59.4827607" lon="17.7695603">
        <ele>27</ele>
        <time>2012-03-17T10:15:44Z</time>
      </trkpt>
      <trkpt lat="59.4828291" lon="17.7688489">
        <ele>28</ele>
        <time>2012-03-17T10:15:49Z</time>
      </trkpt>
      <trkpt lat="59.482923" lon="17.7680268">
        <ele>27</ele>
        <time>2012-03-17T10:15:54Z</time>
      </trkpt>
      <trkpt lat="59.4830155" lon="17.7672671">
        <ele>24</ele>
        <time>2012-03-17T10:15:58Z</time>
      </trkpt>
      <trkpt lat="59.483115" lon="17.7664856">
        <ele>21.4</ele>
        <time>2012-03-17T10:16:02Z</time>
      </trkpt>
      <trkpt lat="59.48322" lon="17.7656454">
        <ele>17.8</ele>
        <time>2012-03-17T10:16:06Z</time>
      </trkpt>
      <trkpt lat="59.4833217" lon="17.764789">
        <ele>15</ele>
        <time>2012-03-17T10:16:10Z</time>
      </trkpt>
      <trkpt lat="59.4834222" lon="17.763928">
        <ele>12.8</ele>
        <time>2012-03-17T10:16:14Z</time>
      </trkpt>
      <trkpt lat="59.483521" lon="17.7630263">
        <ele>9.8</ele>
        <time>2012-03-17T10:16:18Z</time>
      </trkpt>
      <trkpt lat="59.4835165" lon="17.7623617">
        <ele>7.4</ele>
        <time>2012-03-17T10:16:21Z</time>
      </trkpt>
      <trkpt lat="59.4834958" lon="17.762153">
        <ele>7</ele>
        <time>2012-03-17T10:16:22Z</time>
      </trkpt>
      <trkpt lat="59.4833987" lon="17.7615747">
        <ele>6.6</ele>
        <time>2012-03-17T10:16:25Z</time>
      </trkpt>
      <trkpt lat="59.4833584" lon="17.7613963">
        <ele>6.8</ele>
        <time>2012-03-17T10:16:26Z</time>
      </trkpt>
      <trkpt lat="59.4831647" lon="17.7607889">
        <ele>7.2</ele>
        <time>2012-03-17T10:16:30Z</time>
      </trkpt>
      <trkpt lat="59.4828534" lon="17.7602607">
        <ele>6.8</ele>
        <time>2012-03-17T10:16:35Z</time>
      </trkpt>
      <trkpt lat="59.482492" lon="17.7600141">
        <ele>5.6</ele>
        <time>2012-03-17T10:16:40Z</time>
      </trkpt>
      <trkpt lat="59.4820797" lon="17.7598799">
        <ele>5.8</ele>
        <time>2012-03-17T10:16:46Z</time>
      </trkpt>
      <trkpt lat="59.4816931" lon="17.7596894">
        <ele>8.8</ele>
        <time>2012-03-17T10:16:53Z</time>
      </trkpt>
      <trkpt lat="59.4813718" lon="17.7593868">
        <ele>11.8</ele>
        <time>2012-03-17T10:17:00Z</time>
      </trkpt>
      <trkpt lat="59.4810879" lon="17.7590035">
        <ele>15.6</ele>
        <time>2012-03-17T10:17:07Z</time>
      </trkpt>
      <trkpt lat="59.4810519" lon="17.7589372">
        <ele>15.8</ele>
        <time>2012-03-17T10:17:08Z</time>
      </trkpt>
      <trkpt lat="59.4809881" lon="17.7588069">
        <ele>15.8</ele>
        <time>2012-03-17T10:17:10Z</time>
      </trkpt>
      <trkpt lat="59.4809211" lon="17.7586769">
        <ele>16.2</ele>
        <time>2012-03-17T10:17:12Z</time>
      </trkpt>
      <trkpt lat="59.4807916" lon="17.7583802">
        <ele>16.8</ele>
        <time>2012-03-17T10:17:16Z</time>
      </trkpt>
      <trkpt lat="59.4805576" lon="17.7578094">
        <ele>19</ele>
        <time>2012-03-17T10:17:23Z</time>
      </trkpt>
      <trkpt lat="59.4803079" lon="17.7571923">
        <ele>20.2</ele>
        <time>2012-03-17T10:17:30Z</time>
      </trkpt>
      <trkpt lat="59.480065" lon="17.7565812">
        <ele>19.8</ele>
        <time>2012-03-17T10:17:36Z</time>
      </trkpt>
      <trkpt lat="59.4798392" lon="17.7559839">
        <ele>21.2</ele>
        <time>2012-03-17T10:17:41Z</time>
      </trkpt>
      <trkpt lat="59.4797174" lon="17.7556078">
        <ele>18.8</ele>
        <time>2012-03-17T10:17:44Z</time>
      </trkpt>
      <trkpt lat="59.479601" lon="17.7553939">
        <ele>17.8</ele>
        <time>2012-03-17T10:17:46Z</time>
      </trkpt>
      <trkpt lat="59.4795497" lon="17.7552556">
        <ele>16.6</ele>
        <time>2012-03-17T10:17:47Z</time>
      </trkpt>
      <trkpt lat="59.4793622" lon="17.7546921">
        <ele>11.2</ele>
        <time>2012-03-17T10:17:51Z</time>
      </trkpt>
      <trkpt lat="59.4790949" lon="17.7541073">
        <ele>11</ele>
        <time>2012-03-17T10:17:56Z</time>
      </trkpt>
      <trkpt lat="59.4788398" lon="17.7534632">
        <ele>9.2</ele>
        <time>2012-03-17T10:18:01Z</time>
      </trkpt>
      <trkpt lat="59.4785939" lon="17.752866">
        <ele>10</ele>
        <time>2012-03-17T10:18:06Z</time>
      </trkpt>
      <trkpt lat="59.4783417" lon="17.7523331">
        <ele>12</ele>
        <time>2012-03-17T10:18:11Z</time>
      </trkpt>
      <trkpt lat="59.4780727" lon="17.7517347">
        <ele>14.8</ele>
        <time>2012-03-17T10:18:17Z</time>
      </trkpt>
      <trkpt lat="59.4779526" lon="17.7514866">
        <ele>15</ele>
        <time>2012-03-17T10:18:20Z</time>
      </trkpt>
      <trkpt lat="59.4778588" lon="17.7511001">
        <ele>17.4</ele>
        <time>2012-03-17T10:18:23Z</time>
      </trkpt>
      <trkpt lat="59.4776099" lon="17.750462">
        <ele>17</ele>
        <time>2012-03-17T10:18:30Z</time>
      </trkpt>
      <trkpt lat="59.4773854" lon="17.7498264">
        <ele>18</ele>
        <time>2012-03-17T10:18:37Z</time>
      </trkpt>
      <trkpt lat="59.4773606" lon="17.7497416">
        <ele>18.4</ele>
        <time>2012-03-17T10:18:38Z</time>
      </trkpt>
      <trkpt lat="59.4772173" lon="17.7491591">
        <ele>20.6</ele>
        <time>2012-03-17T10:18:45Z</time>
      </trkpt>
      <trkpt lat="59.4771282" lon="17.7490551">
        <ele>20.6</ele>
        <time>2012-03-17T10:18:47Z</time>
      </trkpt>
      <trkpt lat="59.4769044" lon="17.7487189">
        <ele>19.8</ele>
        <time>2012-03-17T10:18:52Z</time>
      </trkpt>
      <trkpt lat="59.4766828" lon="17.7480019">
        <ele>17.8</ele>
        <time>2012-03-17T10:18:58Z</time>
      </trkpt>
      <trkpt lat="59.476518" lon="17.7472942">
        <ele>18</ele>
        <time>2012-03-17T10:19:03Z</time>
      </trkpt>
      <trkpt lat="59.4763756" lon="17.746593">
        <ele>17.4</ele>
        <time>2012-03-17T10:19:08Z</time>
      </trkpt>
      <trkpt lat="59.4762479" lon="17.7458915">
        <ele>16.6</ele>
        <time>2012-03-17T10:19:13Z</time>
      </trkpt>
      <trkpt lat="59.4761598" lon="17.7451877">
        <ele>15</ele>
        <time>2012-03-17T10:19:18Z</time>
      </trkpt>
      <trkpt lat="59.4761217" lon="17.7444724">
        <ele>15.4</ele>
        <time>2012-03-17T10:19:23Z</time>
      </trkpt>
      <trkpt lat="59.4761345" lon="17.7436408">
        <ele>15</ele>
        <time>2012-03-17T10:19:29Z</time>
      </trkpt>
      <trkpt lat="59.4761867" lon="17.7428892">
        <ele>13</ele>
        <time>2012-03-17T10:19:34Z</time>
      </trkpt>
      <trkpt lat="59.476269" lon="17.7420895">
        <ele>10</ele>
        <time>2012-03-17T10:19:39Z</time>
      </trkpt>
      <trkpt lat="59.4764043" lon="17.7412553">
        <ele>8</ele>
        <time>2012-03-17T10:19:44Z</time>
      </trkpt>
      <trkpt lat="59.4765582" lon="17.7405552">
        <ele>4.2</ele>
        <time>2012-03-17T10:19:48Z</time>
      </trkpt>
      <trkpt lat="59.4767605" lon="17.7398806">
        <ele>2</ele>
        <time>2012-03-17T10:19:52Z</time>
      </trkpt>
      <trkpt lat="59.4769679" lon="17.7392558">
        <ele>1.4</ele>
        <time>2012-03-17T10:19:56Z</time>
      </trkpt>
      <trkpt lat="59.4771823" lon="17.7384875">
        <ele>0.4</ele>
        <time>2012-03-17T10:20:01Z</time>
      </trkpt>
      <trkpt lat="59.4774023" lon="17.7377682">
        <ele>1</ele>
        <time>2012-03-17T10:20:06Z</time>
      </trkpt>
      <trkpt lat="59.4776123" lon="17.7371041">
        <ele>1.8</ele>
        <time>2012-03-17T10:20:11Z</time>
      </trkpt>
      <trkpt lat="59.4778083" lon="17.7364575">
        <ele>2.8</ele>
        <time>2012-03-17T10:20:16Z</time>
      </trkpt>
      <trkpt lat="59.4779876" lon="17.7358084">
        <ele>3.6</ele>
        <time>2012-03-17T10:20:21Z</time>
      </trkpt>
      <trkpt lat="59.4781634" lon="17.7350513">
        <ele>4.2</ele>
        <time>2012-03-17T10:20:27Z</time>
      </trkpt>
      <trkpt lat="59.4783017" lon="17.7343079">
        <ele>5.4</ele>
        <time>2012-03-17T10:20:33Z</time>
      </trkpt>
      <trkpt lat="59.4784152" lon="17.7335851">
        <ele>7</ele>
        <time>2012-03-17T10:20:39Z</time>
      </trkpt>
      <trkpt lat="59.478502" lon="17.7328697">
        <ele>8.2</ele>
        <time>2012-03-17T10:20:45Z</time>
      </trkpt>
      <trkpt lat="59.4785685" lon="17.7321353">
        <ele>9</ele>
        <time>2012-03-17T10:20:51Z</time>
      </trkpt>
      <trkpt lat="59.4786177" lon="17.7314117">
        <ele>11.2</ele>
        <time>2012-03-17T10:20:57Z</time>
      </trkpt>
      <trkpt lat="59.4786509" lon="17.730592">
        <ele>15</ele>
        <time>2012-03-17T10:21:04Z</time>
      </trkpt>
      <trkpt lat="59.4786653" lon="17.7298067">
        <ele>17.2</ele>
        <time>2012-03-17T10:21:11Z</time>
      </trkpt>
      <trkpt lat="59.4787161" lon="17.7292099">
        <ele>19</ele>
        <time>2012-03-17T10:21:17Z</time>
      </trkpt>
      <trkpt lat="59.4787374" lon="17.729119">
        <ele>19.4</ele>
        <time>2012-03-17T10:21:18Z</time>
      </trkpt>
      <trkpt lat="59.4786963" lon="17.7284171">
        <ele>17.8</ele>
        <time>2012-03-17T10:21:26Z</time>
      </trkpt>
      <trkpt lat="59.4786751" lon="17.7283288">
        <ele>17.4</ele>
        <time>2012-03-17T10:21:27Z</time>
      </trkpt>
      <trkpt lat="59.4786278" lon="17.7276676">
        <ele>18.4</ele>
        <time>2012-03-17T10:21:34Z</time>
      </trkpt>
      <trkpt lat="59.4786191" lon="17.7269711">
        <ele>22</ele>
        <time>2012-03-17T10:21:41Z</time>
      </trkpt>
      <trkpt lat="59.4786107" lon="17.7262124">
        <ele>25.6</ele>
        <time>2012-03-17T10:21:48Z</time>
      </trkpt>
      <trkpt lat="59.4786012" lon="17.7254119">
        <ele>28.4</ele>
        <time>2012-03-17T10:21:55Z</time>
      </trkpt>
      <trkpt lat="59.4785944" lon="17.7246432">
        <ele>30.6</ele>
        <time>2012-03-17T10:22:02Z</time>
      </trkpt>
      <trkpt lat="59.4785826" lon="17.7238877">
        <ele>32.8</ele>
        <time>2012-03-17T10:22:09Z</time>
      </trkpt>
      <trkpt lat="59.478568" lon="17.7231492">
        <ele>36.4</ele>
        <time>2012-03-17T10:22:16Z</time>
      </trkpt>
      <trkpt lat="59.4785404" lon="17.7224133">
        <ele>32</ele>
        <time>2012-03-17T10:22:23Z</time>
      </trkpt>
      <trkpt lat="59.4785189" lon="17.7216606">
        <ele>28</ele>
        <time>2012-03-17T10:22:30Z</time>
      </trkpt>
      <trkpt lat="59.4785072" lon="17.7208866">
        <ele>28.8</ele>
        <time>2012-03-17T10:22:37Z</time>
      </trkpt>
      <trkpt lat="59.4785011" lon="17.7200938">
        <ele>29.6</ele>
        <time>2012-03-17T10:22:44Z</time>
      </trkpt>
      <trkpt lat="59.478509" lon="17.7193716">
        <ele>29.8</ele>
        <time>2012-03-17T10:22:50Z</time>
      </trkpt>
      <trkpt lat="59.4785379" lon="17.7186184">
        <ele>30.2</ele>
        <time>2012-03-17T10:22:56Z</time>
      </trkpt>
      <trkpt lat="59.4785955" lon="17.7178435">
        <ele>30.4</ele>
        <time>2012-03-17T10:23:02Z</time>
      </trkpt>
      <trkpt lat="59.478684" lon="17.7170927">
        <ele>29.4</ele>
        <time>2012-03-17T10:23:08Z</time>
      </trkpt>
      <trkpt lat="59.4787835" lon="17.7163633">
        <ele>25.4</ele>
        <time>2012-03-17T10:23:14Z</time>
      </trkpt>
      <trkpt lat="59.4788872" lon="17.7156111">
        <ele>24</ele>
        <time>2012-03-17T10:23:20Z</time>
      </trkpt>
      <trkpt lat="59.4789953" lon="17.7148468">
        <ele>24</ele>
        <time>2012-03-17T10:23:26Z</time>
      </trkpt>
      <trkpt lat="59.4790971" lon="17.7140651">
        <ele>23.8</ele>
        <time>2012-03-17T10:23:32Z</time>
      </trkpt>
      <trkpt lat="59.4791957" lon="17.7133">
        <ele>23.8</ele>
        <time>2012-03-17T10:23:38Z</time>
      </trkpt>
      <trkpt lat="59.4793124" lon="17.7125333">
        <ele>23</ele>
        <time>2012-03-17T10:23:44Z</time>
      </trkpt>
      <trkpt lat="59.4794475" lon="17.7118704">
        <ele>20.2</ele>
        <time>2012-03-17T10:23:49Z</time>
      </trkpt>
      <trkpt lat="59.4796035" lon="17.7112103">
        <ele>17.4</ele>
        <time>2012-03-17T10:23:54Z</time>
      </trkpt>
      <trkpt lat="59.4796388" lon="17.7110803">
        <ele>16.6</ele>
        <time>2012-03-17T10:23:55Z</time>
      </trkpt>
      <trkpt lat="59.479777" lon="17.7105768">
        <ele>16.4</ele>
        <time>2012-03-17T10:23:59Z</time>
      </trkpt>
      <trkpt lat="59.4799386" lon="17.7099868">
        <ele>20</ele>
        <time>2012-03-17T10:24:04Z</time>
      </trkpt>
      <trkpt lat="59.4801364" lon="17.709301">
        <ele>24.8</ele>
        <time>2012-03-17T10:24:10Z</time>
      </trkpt>
      <trkpt lat="59.4803212" lon="17.7085984">
        <ele>30.6</ele>
        <time>2012-03-17T10:24:16Z</time>
      </trkpt>
      <trkpt lat="59.4805438" lon="17.7078518">
        <ele>34.2</ele>
        <time>2012-03-17T10:24:22Z</time>
      </trkpt>
      <trkpt lat="59.480788" lon="17.7071857">
        <ele>31.4</ele>
        <time>2012-03-17T10:24:28Z</time>
      </trkpt>
      <trkpt lat="59.481" lon="17.7065259">
        <ele>31.8</ele>
        <time>2012-03-17T10:24:34Z</time>
      </trkpt>
      <trkpt lat="59.4812091" lon="17.7058857">
        <ele>31.2</ele>
        <time>2012-03-17T10:24:40Z</time>
      </trkpt>
      <trkpt lat="59.481422" lon="17.7052418">
        <ele>28.6</ele>
        <time>2012-03-17T10:24:46Z</time>
      </trkpt>
      <trkpt lat="59.4816499" lon="17.7045894">
        <ele>29</ele>
        <time>2012-03-17T10:24:52Z</time>
      </trkpt>
      <trkpt lat="59.4818893" lon="17.7039623">
        <ele>26.8</ele>
        <time>2012-03-17T10:24:58Z</time>
      </trkpt>
      <trkpt lat="59.4821661" lon="17.7033248">
        <ele>24.8</ele>
        <time>2012-03-17T10:25:04Z</time>
      </trkpt>
      <trkpt lat="59.4824576" lon="17.7027057">
        <ele>24.4</ele>
        <time>2012-03-17T10:25:10Z</time>
      </trkpt>
      <trkpt lat="59.4827322" lon="17.7021548">
        <ele>25.4</ele>
        <time>2012-03-17T10:25:16Z</time>
      </trkpt>
      <trkpt lat="59.483014" lon="17.7015557">
        <ele>28</ele>
        <time>2012-03-17T10:25:22Z</time>
      </trkpt>
      <trkpt lat="59.4832989" lon="17.7009527">
        <ele>30.2</ele>
        <time>2012-03-17T10:25:28Z</time>
      </trkpt>
      <trkpt lat="59.4835698" lon="17.7003565">
        <ele>31</ele>
        <time>2012-03-17T10:25:34Z</time>
      </trkpt>
      <trkpt lat="59.4838097" lon="17.6998265">
        <ele>31</ele>
        <time>2012-03-17T10:25:40Z</time>
      </trkpt>
      <trkpt lat="59.4840572" lon="17.6992891">
        <ele>32</ele>
        <time>2012-03-17T10:25:46Z</time>
      </trkpt>
      <trkpt lat="59.4843039" lon="17.6987666">
        <ele>33</ele>
        <time>2012-03-17T10:25:52Z</time>
      </trkpt>
      <trkpt lat="59.484552" lon="17.6982174">
        <ele>35.4</ele>
        <time>2012-03-17T10:25:58Z</time>
      </trkpt>
      <trkpt lat="59.4848172" lon="17.697555">
        <ele>35.8</ele>
        <time>2012-03-17T10:26:04Z</time>
      </trkpt>
      <trkpt lat="59.4850708" lon="17.696992">
        <ele>32.8</ele>
        <time>2012-03-17T10:26:08Z</time>
      </trkpt>
      <trkpt lat="59.48536" lon="17.6963297">
        <ele>30.6</ele>
        <time>2012-03-17T10:26:12Z</time>
      </trkpt>
      <trkpt lat="59.4856621" lon="17.6957135">
        <ele>25.2</ele>
        <time>2012-03-17T10:26:16Z</time>
      </trkpt>
      <trkpt lat="59.4859476" lon="17.695067">
        <ele>21.6</ele>
        <time>2012-03-17T10:26:20Z</time>
      </trkpt>
      <trkpt lat="59.4862421" lon="17.694407">
        <ele>17.6</ele>
        <time>2012-03-17T10:26:24Z</time>
      </trkpt>
      <trkpt lat="59.4864702" lon="17.6939402">
        <ele>15.4</ele>
        <time>2012-03-17T10:26:28Z</time>
      </trkpt>
      <trkpt lat="59.4867862" lon="17.6933509">
        <ele>14</ele>
        <time>2012-03-17T10:26:31Z</time>
      </trkpt>
      <trkpt lat="59.4870825" lon="17.6928194">
        <ele>13.8</ele>
        <time>2012-03-17T10:26:35Z</time>
      </trkpt>
      <trkpt lat="59.4874093" lon="17.6922543">
        <ele>12.6</ele>
        <time>2012-03-17T10:26:40Z</time>
      </trkpt>
      <trkpt lat="59.4877103" lon="17.6917254">
        <ele>12.2</ele>
        <time>2012-03-17T10:26:45Z</time>
      </trkpt>
      <trkpt lat="59.4880108" lon="17.6912237">
        <ele>10.4</ele>
        <time>2012-03-17T10:26:50Z</time>
      </trkpt>
      <trkpt lat="59.4883155" lon="17.6906939">
        <ele>7.2</ele>
        <time>2012-03-17T10:26:55Z</time>
      </trkpt>
      <trkpt lat="59.4886251" lon="17.6901613">
        <ele>5</ele>
        <time>2012-03-17T10:27:00Z</time>
      </trkpt>
      <trkpt lat="59.4889468" lon="17.6896414">
        <ele>3.8</ele>
        <time>2012-03-17T10:27:05Z</time>
      </trkpt>
      <trkpt lat="59.4892897" lon="17.6891908">
        <ele>3.8</ele>
        <time>2012-03-17T10:27:10Z</time>
      </trkpt>
      <trkpt lat="59.4896571" lon="17.6888169">
        <ele>2.8</ele>
        <time>2012-03-17T10:27:15Z</time>
      </trkpt>
      <trkpt lat="59.4900269" lon="17.6884577">
        <ele>2.8</ele>
        <time>2012-03-17T10:27:20Z</time>
      </trkpt>
      <trkpt lat="59.4904235" lon="17.6880801">
        <ele>3.2</ele>
        <time>2012-03-17T10:27:25Z</time>
      </trkpt>
      <trkpt lat="59.4907408" lon="17.6877586">
        <ele>3.4</ele>
        <time>2012-03-17T10:27:29Z</time>
      </trkpt>
      <trkpt lat="59.4910927" lon="17.6874517">
        <ele>2</ele>
        <time>2012-03-17T10:27:33Z</time>
      </trkpt>
      <trkpt lat="59.491453" lon="17.6871672">
        <ele>1.2</ele>
        <time>2012-03-17T10:27:37Z</time>
      </trkpt>
      <trkpt lat="59.4918093" lon="17.6868958">
        <ele>1.2</ele>
        <time>2012-03-17T10:27:41Z</time>
      </trkpt>
      <trkpt lat="59.4921455" lon="17.6865805">
        <ele>1.4</ele>
        <time>2012-03-17T10:27:45Z</time>
      </trkpt>
      <trkpt lat="59.4924492" lon="17.6861758">
        <ele>2</ele>
        <time>2012-03-17T10:27:49Z</time>
      </trkpt>
      <trkpt lat="59.4927261" lon="17.6857289">
        <ele>2.4</ele>
        <time>2012-03-17T10:27:53Z</time>
      </trkpt>
      <trkpt lat="59.4930557" lon="17.6851684">
        <ele>2.2</ele>
        <time>2012-03-17T10:27:58Z</time>
      </trkpt>
      <trkpt lat="59.4933468" lon="17.6846219">
        <ele>2.6</ele>
        <time>2012-03-17T10:28:03Z</time>
      </trkpt>
      <trkpt lat="59.4936279" lon="17.684051">
        <ele>2.2</ele>
        <time>2012-03-17T10:28:08Z</time>
      </trkpt>
      <trkpt lat="59.4939062" lon="17.6834807">
        <ele>2.2</ele>
        <time>2012-03-17T10:28:13Z</time>
      </trkpt>
      <trkpt lat="59.4941792" lon="17.6829213">
        <ele>3</ele>
        <time>2012-03-17T10:28:18Z</time>
      </trkpt>
      <trkpt lat="59.4944342" lon="17.6823363">
        <ele>3.6</ele>
        <time>2012-03-17T10:28:23Z</time>
      </trkpt>
      <trkpt lat="59.4946509" lon="17.6817578">
        <ele>5.4</ele>
        <time>2012-03-17T10:28:28Z</time>
      </trkpt>
      <trkpt lat="59.4948609" lon="17.6811922">
        <ele>6.8</ele>
        <time>2012-03-17T10:28:33Z</time>
      </trkpt>
      <trkpt lat="59.4951018" lon="17.6805649">
        <ele>8</ele>
        <time>2012-03-17T10:28:39Z</time>
      </trkpt>
      <trkpt lat="59.4953287" lon="17.6799247">
        <ele>9.4</ele>
        <time>2012-03-17T10:28:45Z</time>
      </trkpt>
      <trkpt lat="59.4955728" lon="17.6793113">
        <ele>11</ele>
        <time>2012-03-17T10:28:51Z</time>
      </trkpt>
      <trkpt lat="59.4958167" lon="17.6787478">
        <ele>12.6</ele>
        <time>2012-03-17T10:28:57Z</time>
      </trkpt>
      <trkpt lat="59.496082" lon="17.6781466">
        <ele>13</ele>
        <time>2012-03-17T10:29:03Z</time>
      </trkpt>
      <trkpt lat="59.4963455" lon="17.6775547">
        <ele>13</ele>
        <time>2012-03-17T10:29:08Z</time>
      </trkpt>
      <trkpt lat="59.4966297" lon="17.6769355">
        <ele>12.4</ele>
        <time>2012-03-17T10:29:13Z</time>
      </trkpt>
      <trkpt lat="59.4969242" lon="17.6762818">
        <ele>12.2</ele>
        <time>2012-03-17T10:29:18Z</time>
      </trkpt>
      <trkpt lat="59.4972043" lon="17.6756467">
        <ele>12.4</ele>
        <time>2012-03-17T10:29:23Z</time>
      </trkpt>
      <trkpt lat="59.497473" lon="17.6750594">
        <ele>12.2</ele>
        <time>2012-03-17T10:29:28Z</time>
      </trkpt>
      <trkpt lat="59.4977364" lon="17.6745102">
        <ele>11.8</ele>
        <time>2012-03-17T10:29:33Z</time>
      </trkpt>
      <trkpt lat="59.4980149" lon="17.6739954">
        <ele>11.8</ele>
        <time>2012-03-17T10:29:38Z</time>
      </trkpt>
      <trkpt lat="59.4983029" lon="17.6735012">
        <ele>12</ele>
        <time>2012-03-17T10:29:43Z</time>
      </trkpt>
      <trkpt lat="59.4985906" lon="17.6730189">
        <ele>12.4</ele>
        <time>2012-03-17T10:29:48Z</time>
      </trkpt>
      <trkpt lat="59.4989259" lon="17.6724678">
        <ele>13.2</ele>
        <time>2012-03-17T10:29:54Z</time>
      </trkpt>
      <trkpt lat="59.4992073" lon="17.671998">
        <ele>13.6</ele>
        <time>2012-03-17T10:29:59Z</time>
      </trkpt>
      <trkpt lat="59.4994962" lon="17.6715158">
        <ele>13.6</ele>
        <time>2012-03-17T10:30:04Z</time>
      </trkpt>
      <trkpt lat="59.4997825" lon="17.6710413">
        <ele>13.8</ele>
        <time>2012-03-17T10:30:09Z</time>
      </trkpt>
      <trkpt lat="59.5000725" lon="17.67056">
        <ele>14.4</ele>
        <time>2012-03-17T10:30:14Z</time>
      </trkpt>
      <trkpt lat="59.5003594" lon="17.6700799">
        <ele>14.6</ele>
        <time>2012-03-17T10:30:19Z</time>
      </trkpt>
      <trkpt lat="59.5006518" lon="17.6695932">
        <ele>14.8</ele>
        <time>2012-03-17T10:30:24Z</time>
      </trkpt>
      <trkpt lat="59.5009375" lon="17.669065">
        <ele>15.8</ele>
        <time>2012-03-17T10:30:29Z</time>
      </trkpt>
      <trkpt lat="59.5012009" lon="17.6685113">
        <ele>15.6</ele>
        <time>2012-03-17T10:30:34Z</time>
      </trkpt>
      <trkpt lat="59.5014771" lon="17.6679954">
        <ele>15.2</ele>
        <time>2012-03-17T10:30:39Z</time>
      </trkpt>
      <trkpt lat="59.5017737" lon="17.6675393">
        <ele>15</ele>
        <time>2012-03-17T10:30:44Z</time>
      </trkpt>
      <trkpt lat="59.5020824" lon="17.6671038">
        <ele>15.4</ele>
        <time>2012-03-17T10:30:49Z</time>
      </trkpt>
      <trkpt lat="59.5023953" lon="17.6666749">
        <ele>15.6</ele>
        <time>2012-03-17T10:30:54Z</time>
      </trkpt>
      <trkpt lat="59.5027155" lon="17.6662522">
        <ele>15.4</ele>
        <time>2012-03-17T10:30:59Z</time>
      </trkpt>
      <trkpt lat="59.5030382" lon="17.6658464">
        <ele>15.6</ele>
        <time>2012-03-17T10:31:04Z</time>
      </trkpt>
      <trkpt lat="59.5033748" lon="17.6654058">
        <ele>16.2</ele>
        <time>2012-03-17T10:31:09Z</time>
      </trkpt>
      <trkpt lat="59.50369" lon="17.6649581">
        <ele>16.2</ele>
        <time>2012-03-17T10:31:14Z</time>
      </trkpt>
      <trkpt lat="59.5039809" lon="17.6645392">
        <ele>16.2</ele>
        <time>2012-03-17T10:31:19Z</time>
      </trkpt>
      <trkpt lat="59.5043258" lon="17.6640481">
        <ele>15.4</ele>
        <time>2012-03-17T10:31:25Z</time>
      </trkpt>
      <trkpt lat="59.5046268" lon="17.6636181">
        <ele>14.8</ele>
        <time>2012-03-17T10:31:30Z</time>
      </trkpt>
      <trkpt lat="59.5048921" lon="17.6631777">
        <ele>15.6</ele>
        <time>2012-03-17T10:31:35Z</time>
      </trkpt>
      <trkpt lat="59.5051872" lon="17.6626009">
        <ele>16.8</ele>
        <time>2012-03-17T10:31:41Z</time>
      </trkpt>
      <trkpt lat="59.5054584" lon="17.6620425">
        <ele>17.8</ele>
        <time>2012-03-17T10:31:47Z</time>
      </trkpt>
      <trkpt lat="59.5057343" lon="17.6615886">
        <ele>17.8</ele>
        <time>2012-03-17T10:31:52Z</time>
      </trkpt>
      <trkpt lat="59.5060878" lon="17.6613086">
        <ele>16.4</ele>
        <time>2012-03-17T10:31:57Z</time>
      </trkpt>
      <trkpt lat="59.5064441" lon="17.661415">
        <ele>14.8</ele>
        <time>2012-03-17T10:32:02Z</time>
      </trkpt>
      <trkpt lat="59.5066947" lon="17.6610089">
        <ele>13.2</ele>
        <time>2012-03-17T10:32:08Z</time>
      </trkpt>
      <trkpt lat="59.506887" lon="17.6602846">
        <ele>13.6</ele>
        <time>2012-03-17T10:32:14Z</time>
      </trkpt>
      <trkpt lat="59.5071044" lon="17.6595949">
        <ele>14.2</ele>
        <time>2012-03-17T10:32:20Z</time>
      </trkpt>
      <trkpt lat="59.5073311" lon="17.6589356">
        <ele>15.2</ele>
        <time>2012-03-17T10:32:26Z</time>
      </trkpt>
      <trkpt lat="59.5075553" lon="17.6583014">
        <ele>16.2</ele>
        <time>2012-03-17T10:32:32Z</time>
      </trkpt>
      <trkpt lat="59.5078234" lon="17.6576617">
        <ele>15.6</ele>
        <time>2012-03-17T10:32:38Z</time>
      </trkpt>
      <trkpt lat="59.5080694" lon="17.6571452">
        <ele>15.6</ele>
        <time>2012-03-17T10:32:43Z</time>
      </trkpt>
      <trkpt lat="59.508335" lon="17.6566681">
        <ele>15.6</ele>
        <time>2012-03-17T10:32:48Z</time>
      </trkpt>
      <trkpt lat="59.5086201" lon="17.6562101">
        <ele>15.4</ele>
        <time>2012-03-17T10:32:53Z</time>
      </trkpt>
      <trkpt lat="59.5089651" lon="17.6557141">
        <ele>16</ele>
        <time>2012-03-17T10:32:59Z</time>
      </trkpt>
      <trkpt lat="59.509288" lon="17.6552362">
        <ele>16.4</ele>
        <time>2012-03-17T10:33:05Z</time>
      </trkpt>
      <trkpt lat="59.5095346" lon="17.6548342">
        <ele>18.4</ele>
        <time>2012-03-17T10:33:10Z</time>
      </trkpt>
      <trkpt lat="59.509581" lon="17.6547471">
        <ele>18.6</ele>
        <time>2012-03-17T10:33:11Z</time>
      </trkpt>
      <trkpt lat="59.5098546" lon="17.6542835">
        <ele>17.8</ele>
        <time>2012-03-17T10:33:17Z</time>
      </trkpt>
      <trkpt lat="59.5101105" lon="17.6539775">
        <ele>17</ele>
        <time>2012-03-17T10:33:22Z</time>
      </trkpt>
      <trkpt lat="59.5102013" lon="17.6538744">
        <ele>16.2</ele>
        <time>2012-03-17T10:33:24Z</time>
      </trkpt>
      <trkpt lat="59.5100741" lon="17.6534012">
        <ele>16.8</ele>
        <time>2012-03-17T10:33:30Z</time>
      </trkpt>
      <trkpt lat="59.5100214" lon="17.6533278">
        <ele>16.6</ele>
        <time>2012-03-17T10:33:31Z</time>
      </trkpt>
      <trkpt lat="59.5099696" lon="17.6532419">
        <ele>16</ele>
        <time>2012-03-17T10:33:32Z</time>
      </trkpt>
      <trkpt lat="59.5097931" lon="17.6528105">
        <ele>15</ele>
        <time>2012-03-17T10:33:36Z</time>
      </trkpt>
      <trkpt lat="59.5097577" lon="17.6526886">
        <ele>15</ele>
        <time>2012-03-17T10:33:37Z</time>
      </trkpt>
      <trkpt lat="59.5095764" lon="17.6519685">
        <ele>14.2</ele>
        <time>2012-03-17T10:33:43Z</time>
      </trkpt>
      <trkpt lat="59.5094082" lon="17.6512639">
        <ele>12.4</ele>
        <time>2012-03-17T10:33:49Z</time>
      </trkpt>
      <trkpt lat="59.5092697" lon="17.6505586">
        <ele>12.4</ele>
        <time>2012-03-17T10:33:55Z</time>
      </trkpt>
      <trkpt lat="59.5091277" lon="17.6499023">
        <ele>14.6</ele>
        <time>2012-03-17T10:34:01Z</time>
      </trkpt>
      <trkpt lat="59.5089866" lon="17.6492439">
        <ele>13.8</ele>
        <time>2012-03-17T10:34:07Z</time>
      </trkpt>
      <trkpt lat="59.508856" lon="17.6485262">
        <ele>14.2</ele>
        <time>2012-03-17T10:34:14Z</time>
      </trkpt>
      <trkpt lat="59.5087204" lon="17.6477852">
        <ele>16</ele>
        <time>2012-03-17T10:34:22Z</time>
      </trkpt>
      <trkpt lat="59.5085897" lon="17.6470335">
        <ele>20.6</ele>
        <time>2012-03-17T10:34:31Z</time>
      </trkpt>
      <trkpt lat="59.5084799" lon="17.6463421">
        <ele>22.8</ele>
        <time>2012-03-17T10:34:39Z</time>
      </trkpt>
      <trkpt lat="59.5083499" lon="17.6455696">
        <ele>22.4</ele>
        <time>2012-03-17T10:34:47Z</time>
      </trkpt>
      <trkpt lat="59.5082375" lon="17.6448637">
        <ele>23.2</ele>
        <time>2012-03-17T10:34:53Z</time>
      </trkpt>
      <trkpt lat="59.5081173" lon="17.644104">
        <ele>18.6</ele>
        <time>2012-03-17T10:34:58Z</time>
      </trkpt>
      <trkpt lat="59.5079946" lon="17.6432406">
        <ele>14.4</ele>
        <time>2012-03-17T10:35:03Z</time>
      </trkpt>
      <trkpt lat="59.5078883" lon="17.6424056">
        <ele>11.8</ele>
        <time>2012-03-17T10:35:08Z</time>
      </trkpt>
      <trkpt lat="59.5078082" lon="17.6416225">
        <ele>10.4</ele>
        <time>2012-03-17T10:35:13Z</time>
      </trkpt>
      <trkpt lat="59.5077393" lon="17.6408883">
        <ele>9</ele>
        <time>2012-03-17T10:35:18Z</time>
      </trkpt>
      <trkpt lat="59.5076496" lon="17.6400733">
        <ele>8.2</ele>
        <time>2012-03-17T10:35:24Z</time>
      </trkpt>
      <trkpt lat="59.5075651" lon="17.6392629">
        <ele>7.6</ele>
        <time>2012-03-17T10:35:30Z</time>
      </trkpt>
      <trkpt lat="59.5074956" lon="17.6384295">
        <ele>9.2</ele>
        <time>2012-03-17T10:35:36Z</time>
      </trkpt>
      <trkpt lat="59.5074891" lon="17.6376113">
        <ele>11.8</ele>
        <time>2012-03-17T10:35:42Z</time>
      </trkpt>
      <trkpt lat="59.5075459" lon="17.6368236">
        <ele>15.2</ele>
        <time>2012-03-17T10:35:48Z</time>
      </trkpt>
      <trkpt lat="59.5076646" lon="17.6360802">
        <ele>18</ele>
        <time>2012-03-17T10:35:54Z</time>
      </trkpt>
      <trkpt lat="59.5078177" lon="17.6354181">
        <ele>18.4</ele>
        <time>2012-03-17T10:36:00Z</time>
      </trkpt>
      <trkpt lat="59.508037" lon="17.6347292">
        <ele>17.8</ele>
        <time>2012-03-17T10:36:07Z</time>
      </trkpt>
      <trkpt lat="59.5082761" lon="17.6340569">
        <ele>17.8</ele>
        <time>2012-03-17T10:36:14Z</time>
      </trkpt>
      <trkpt lat="59.5084834" lon="17.6334766">
        <ele>15.4</ele>
        <time>2012-03-17T10:36:20Z</time>
      </trkpt>
      <trkpt lat="59.5086966" lon="17.6328716">
        <ele>13.6</ele>
        <time>2012-03-17T10:36:26Z</time>
      </trkpt>
      <trkpt lat="59.5089152" lon="17.6322687">
        <ele>12.2</ele>
        <time>2012-03-17T10:36:32Z</time>
      </trkpt>
      <trkpt lat="59.5091386" lon="17.6316469">
        <ele>11.6</ele>
        <time>2012-03-17T10:36:38Z</time>
      </trkpt>
      <trkpt lat="59.5093493" lon="17.6310566">
        <ele>11.4</ele>
        <time>2012-03-17T10:36:44Z</time>
      </trkpt>
      <trkpt lat="59.5095703" lon="17.6304369">
        <ele>12.2</ele>
        <time>2012-03-17T10:36:50Z</time>
      </trkpt>
      <trkpt lat="59.5097961" lon="17.6298253">
        <ele>13.8</ele>
        <time>2012-03-17T10:36:56Z</time>
      </trkpt>
      <trkpt lat="59.5100027" lon="17.6292135">
        <ele>15</ele>
        <time>2012-03-17T10:37:02Z</time>
      </trkpt>
      <trkpt lat="59.5102159" lon="17.6286194">
        <ele>16</ele>
        <time>2012-03-17T10:37:08Z</time>
      </trkpt>
      <trkpt lat="59.5104397" lon="17.6280006">
        <ele>15.6</ele>
        <time>2012-03-17T10:37:14Z</time>
      </trkpt>
      <trkpt lat="59.5106572" lon="17.6273866">
        <ele>17.4</ele>
        <time>2012-03-17T10:37:20Z</time>
      </trkpt>
      <trkpt lat="59.5108736" lon="17.626786">
        <ele>20.8</ele>
        <time>2012-03-17T10:37:26Z</time>
      </trkpt>
      <trkpt lat="59.5110839" lon="17.6261681">
        <ele>23.8</ele>
        <time>2012-03-17T10:37:32Z</time>
      </trkpt>
      <trkpt lat="59.5112913" lon="17.625564">
        <ele>25.4</ele>
        <time>2012-03-17T10:37:38Z</time>
      </trkpt>
      <trkpt lat="59.5115403" lon="17.6249124">
        <ele>26.6</ele>
        <time>2012-03-17T10:37:45Z</time>
      </trkpt>
      <trkpt lat="59.5117662" lon="17.6242535">
        <ele>25.8</ele>
        <time>2012-03-17T10:37:52Z</time>
      </trkpt>
      <trkpt lat="59.5119558" lon="17.6236469">
        <ele>25</ele>
        <time>2012-03-17T10:37:58Z</time>
      </trkpt>
      <trkpt lat="59.5121486" lon="17.6228874">
        <ele>24.2</ele>
        <time>2012-03-17T10:38:05Z</time>
      </trkpt>
      <trkpt lat="59.5123202" lon="17.6221228">
        <ele>24.4</ele>
        <time>2012-03-17T10:38:12Z</time>
      </trkpt>
      <trkpt lat="59.5124627" lon="17.6214048">
        <ele>24.8</ele>
        <time>2012-03-17T10:38:19Z</time>
      </trkpt>
      <trkpt lat="59.5125846" lon="17.6206901">
        <ele>25.8</ele>
        <time>2012-03-17T10:38:26Z</time>
      </trkpt>
      <trkpt lat="59.5126939" lon="17.6199882">
        <ele>24</ele>
        <time>2012-03-17T10:38:33Z</time>
      </trkpt>
      <trkpt lat="59.5127725" lon="17.6192485">
        <ele>21.6</ele>
        <time>2012-03-17T10:38:41Z</time>
      </trkpt>
      <trkpt lat="59.512839" lon="17.6185471">
        <ele>21.6</ele>
        <time>2012-03-17T10:38:48Z</time>
      </trkpt>
      <trkpt lat="59.5128903" lon="17.6177606">
        <ele>21.8</ele>
        <time>2012-03-17T10:38:56Z</time>
      </trkpt>
      <trkpt lat="59.5129303" lon="17.6170229">
        <ele>23.6</ele>
        <time>2012-03-17T10:39:04Z</time>
      </trkpt>
      <trkpt lat="59.5130519" lon="17.6163042">
        <ele>27.8</ele>
        <time>2012-03-17T10:39:12Z</time>
      </trkpt>
      <trkpt lat="59.5131063" lon="17.6158121">
        <ele>30.6</ele>
        <time>2012-03-17T10:39:17Z</time>
      </trkpt>
      <trkpt lat="59.5131602" lon="17.6156209">
        <ele>31.4</ele>
        <time>2012-03-17T10:39:19Z</time>
      </trkpt>
      <trkpt lat="59.5133466" lon="17.6154241">
        <ele>31.6</ele>
        <time>2012-03-17T10:39:23Z</time>
      </trkpt>
      <trkpt lat="59.513502" lon="17.6153478">
        <ele>30</ele>
        <time>2012-03-17T10:39:26Z</time>
      </trkpt>
      <trkpt lat="59.5138817" lon="17.6152345">
        <ele>27</ele>
        <time>2012-03-17T10:39:33Z</time>
      </trkpt>
      <trkpt lat="59.5142531" lon="17.6152086">
        <ele>27.8</ele>
        <time>2012-03-17T10:39:39Z</time>
      </trkpt>
      <trkpt lat="59.5146504" lon="17.615193">
        <ele>28.8</ele>
        <time>2012-03-17T10:39:45Z</time>
      </trkpt>
      <trkpt lat="59.5150333" lon="17.6151235">
        <ele>29.6</ele>
        <time>2012-03-17T10:39:50Z</time>
      </trkpt>
      <trkpt lat="59.5154192" lon="17.6149687">
        <ele>29</ele>
        <time>2012-03-17T10:39:55Z</time>
      </trkpt>
      <trkpt lat="59.5158047" lon="17.6147179">
        <ele>28.2</ele>
        <time>2012-03-17T10:40:00Z</time>
      </trkpt>
      <trkpt lat="59.5161531" lon="17.6143868">
        <ele>29</ele>
        <time>2012-03-17T10:40:05Z</time>
      </trkpt>
      <trkpt lat="59.5165287" lon="17.6139343">
        <ele>32.2</ele>
        <time>2012-03-17T10:40:11Z</time>
      </trkpt>
      <trkpt lat="59.5167368" lon="17.6137093">
        <ele>34</ele>
        <time>2012-03-17T10:40:15Z</time>
      </trkpt>
      <trkpt lat="59.5168622" lon="17.6137959">
        <ele>33.2</ele>
        <time>2012-03-17T10:40:18Z</time>
      </trkpt>
      <trkpt lat="59.5169281" lon="17.6145898">
        <ele>32.8</ele>
        <time>2012-03-17T10:40:25Z</time>
      </trkpt>
      <trkpt lat="59.5169395" lon="17.6146994">
        <ele>32.4</ele>
        <time>2012-03-17T10:40:27Z</time>
      </trkpt>
      <trkpt lat="59.5170596" lon="17.6152926">
        <ele>30.8</ele>
        <time>2012-03-17T10:40:33Z</time>
      </trkpt>
      <trkpt lat="59.5172902" lon="17.6159385">
        <ele>30</ele>
        <time>2012-03-17T10:40:39Z</time>
      </trkpt>
      <trkpt lat="59.5176242" lon="17.6164605">
        <ele>28.4</ele>
        <time>2012-03-17T10:40:45Z</time>
      </trkpt>
      <trkpt lat="59.5180097" lon="17.6169102">
        <ele>25.8</ele>
        <time>2012-03-17T10:40:51Z</time>
      </trkpt>
      <trkpt lat="59.5183597" lon="17.6172524">
        <ele>24.6</ele>
        <time>2012-03-17T10:40:55Z</time>
      </trkpt>
      <trkpt lat="59.518734" lon="17.6175733">
        <ele>24</ele>
        <time>2012-03-17T10:40:59Z</time>
      </trkpt>
      <trkpt lat="59.5191178" lon="17.6178592">
        <ele>23.6</ele>
        <time>2012-03-17T10:41:03Z</time>
      </trkpt>
      <trkpt lat="59.519481" lon="17.618101">
        <ele>23.8</ele>
        <time>2012-03-17T10:41:07Z</time>
      </trkpt>
      <trkpt lat="59.5198343" lon="17.6183062">
        <ele>23.8</ele>
        <time>2012-03-17T10:41:11Z</time>
      </trkpt>
      <trkpt lat="59.5202626" lon="17.6185374">
        <ele>24.2</ele>
        <time>2012-03-17T10:41:16Z</time>
      </trkpt>
      <trkpt lat="59.5206832" lon="17.6187775">
        <ele>24.2</ele>
        <time>2012-03-17T10:41:21Z</time>
      </trkpt>
      <trkpt lat="59.5211029" lon="17.6190383">
        <ele>24.2</ele>
        <time>2012-03-17T10:41:26Z</time>
      </trkpt>
      <trkpt lat="59.5215172" lon="17.6193369">
        <ele>23.8</ele>
        <time>2012-03-17T10:41:31Z</time>
      </trkpt>
      <trkpt lat="59.5219263" lon="17.6196594">
        <ele>23.8</ele>
        <time>2012-03-17T10:41:36Z</time>
      </trkpt>
      <trkpt lat="59.5223325" lon="17.6200302">
        <ele>24</ele>
        <time>2012-03-17T10:41:41Z</time>
      </trkpt>
      <trkpt lat="59.5227376" lon="17.6204166">
        <ele>24</ele>
        <time>2012-03-17T10:41:46Z</time>
      </trkpt>
      <trkpt lat="59.5230506" lon="17.6207585">
        <ele>23.6</ele>
        <time>2012-03-17T10:41:50Z</time>
      </trkpt>
      <trkpt lat="59.5234336" lon="17.6212189">
        <ele>23.6</ele>
        <time>2012-03-17T10:41:55Z</time>
      </trkpt>
      <trkpt lat="59.5237361" lon="17.6216096">
        <ele>23.6</ele>
        <time>2012-03-17T10:41:59Z</time>
      </trkpt>
      <trkpt lat="59.524039" lon="17.6220362">
        <ele>23.4</ele>
        <time>2012-03-17T10:42:03Z</time>
      </trkpt>
      <trkpt lat="59.5243335" lon="17.6224793">
        <ele>22.4</ele>
        <time>2012-03-17T10:42:07Z</time>
      </trkpt>
      <trkpt lat="59.5246228" lon="17.6229444">
        <ele>21.4</ele>
        <time>2012-03-17T10:42:11Z</time>
      </trkpt>
      <trkpt lat="59.5249045" lon="17.6234392">
        <ele>21.2</ele>
        <time>2012-03-17T10:42:15Z</time>
      </trkpt>
      <trkpt lat="59.5251836" lon="17.623942">
        <ele>20</ele>
        <time>2012-03-17T10:42:19Z</time>
      </trkpt>
      <trkpt lat="59.5254534" lon="17.6244365">
        <ele>19.2</ele>
        <time>2012-03-17T10:42:23Z</time>
      </trkpt>
      <trkpt lat="59.5257292" lon="17.6249238">
        <ele>19.2</ele>
        <time>2012-03-17T10:42:27Z</time>
      </trkpt>
      <trkpt lat="59.5260015" lon="17.6254263">
        <ele>19</ele>
        <time>2012-03-17T10:42:31Z</time>
      </trkpt>
      <trkpt lat="59.5262719" lon="17.6259097">
        <ele>19</ele>
        <time>2012-03-17T10:42:35Z</time>
      </trkpt>
      <trkpt lat="59.5265497" lon="17.6264031">
        <ele>19.2</ele>
        <time>2012-03-17T10:42:39Z</time>
      </trkpt>
      <trkpt lat="59.5268533" lon="17.6268849">
        <ele>19.4</ele>
        <time>2012-03-17T10:42:43Z</time>
      </trkpt>
      <trkpt lat="59.5271574" lon="17.6273342">
        <ele>19.4</ele>
        <time>2012-03-17T10:42:47Z</time>
      </trkpt>
      <trkpt lat="59.5274588" lon="17.6277625">
        <ele>19.2</ele>
        <time>2012-03-17T10:42:51Z</time>
      </trkpt>
      <trkpt lat="59.5277701" lon="17.6281754">
        <ele>19.4</ele>
        <time>2012-03-17T10:42:55Z</time>
      </trkpt>
      <trkpt lat="59.5280876" lon="17.6285733">
        <ele>19</ele>
        <time>2012-03-17T10:42:59Z</time>
      </trkpt>
      <trkpt lat="59.5284039" lon="17.6289567">
        <ele>18.6</ele>
        <time>2012-03-17T10:43:03Z</time>
      </trkpt>
      <trkpt lat="59.528719" lon="17.6293367">
        <ele>18.4</ele>
        <time>2012-03-17T10:43:07Z</time>
      </trkpt>
      <trkpt lat="59.5290392" lon="17.6296878">
        <ele>18.8</ele>
        <time>2012-03-17T10:43:11Z</time>
      </trkpt>
      <trkpt lat="59.5293652" lon="17.629991">
        <ele>19.8</ele>
        <time>2012-03-17T10:43:15Z</time>
      </trkpt>
      <trkpt lat="59.5297668" lon="17.6303722">
        <ele>20.8</ele>
        <time>2012-03-17T10:43:19Z</time>
      </trkpt>
      <trkpt lat="59.530103" lon="17.6306668">
        <ele>21.2</ele>
        <time>2012-03-17T10:43:23Z</time>
      </trkpt>
      <trkpt lat="59.5304534" lon="17.6309476">
        <ele>21.8</ele>
        <time>2012-03-17T10:43:27Z</time>
      </trkpt>
      <trkpt lat="59.5307973" lon="17.6312306">
        <ele>21.8</ele>
        <time>2012-03-17T10:43:31Z</time>
      </trkpt>
      <trkpt lat="59.5311278" lon="17.6315155">
        <ele>21.4</ele>
        <time>2012-03-17T10:43:35Z</time>
      </trkpt>
      <trkpt lat="59.5314905" lon="17.6318091">
        <ele>22.2</ele>
        <time>2012-03-17T10:43:39Z</time>
      </trkpt>
      <trkpt lat="59.5319109" lon="17.6321501">
        <ele>22.4</ele>
        <time>2012-03-17T10:43:44Z</time>
      </trkpt>
      <trkpt lat="59.5323193" lon="17.6324764">
        <ele>22.8</ele>
        <time>2012-03-17T10:43:49Z</time>
      </trkpt>
      <trkpt lat="59.5327169" lon="17.6327893">
        <ele>23</ele>
        <time>2012-03-17T10:43:54Z</time>
      </trkpt>
      <trkpt lat="59.5331187" lon="17.6330763">
        <ele>23.4</ele>
        <time>2012-03-17T10:43:59Z</time>
      </trkpt>
      <trkpt lat="59.5335122" lon="17.6333109">
        <ele>23.6</ele>
        <time>2012-03-17T10:44:04Z</time>
      </trkpt>
      <trkpt lat="59.5339178" lon="17.6334912">
        <ele>23.8</ele>
        <time>2012-03-17T10:44:09Z</time>
      </trkpt>
      <trkpt lat="59.5343264" lon="17.6336436">
        <ele>24.2</ele>
        <time>2012-03-17T10:44:14Z</time>
      </trkpt>
      <trkpt lat="59.5347331" lon="17.6337726">
        <ele>25.2</ele>
        <time>2012-03-17T10:44:19Z</time>
      </trkpt>
      <trkpt lat="59.5351398" lon="17.6338834">
        <ele>26.4</ele>
        <time>2012-03-17T10:44:24Z</time>
      </trkpt>
      <trkpt lat="59.5355442" lon="17.6339937">
        <ele>27.2</ele>
        <time>2012-03-17T10:44:29Z</time>
      </trkpt>
      <trkpt lat="59.5359337" lon="17.6340822">
        <ele>27.4</ele>
        <time>2012-03-17T10:44:34Z</time>
      </trkpt>
      <trkpt lat="59.5363152" lon="17.6341584">
        <ele>28.2</ele>
        <time>2012-03-17T10:44:39Z</time>
      </trkpt>
      <trkpt lat="59.5367068" lon="17.6342278">
        <ele>28.8</ele>
        <time>2012-03-17T10:44:44Z</time>
      </trkpt>
      <trkpt lat="59.5371249" lon="17.6342567">
        <ele>29.6</ele>
        <time>2012-03-17T10:44:50Z</time>
      </trkpt>
      <trkpt lat="59.5375382" lon="17.6342572">
        <ele>31.2</ele>
        <time>2012-03-17T10:44:54Z</time>
      </trkpt>
      <trkpt lat="59.5379329" lon="17.6342558">
        <ele>33</ele>
        <time>2012-03-17T10:44:59Z</time>
      </trkpt>
      <trkpt lat="59.5383243" lon="17.6342335">
        <ele>34.4</ele>
        <time>2012-03-17T10:45:04Z</time>
      </trkpt>
      <trkpt lat="59.5387031" lon="17.6341883">
        <ele>36.2</ele>
        <time>2012-03-17T10:45:09Z</time>
      </trkpt>
      <trkpt lat="59.5390889" lon="17.634103">
        <ele>39</ele>
        <time>2012-03-17T10:45:14Z</time>
      </trkpt>
      <trkpt lat="59.5394638" lon="17.6340299">
        <ele>38.8</ele>
        <time>2012-03-17T10:45:19Z</time>
      </trkpt>
      <trkpt lat="59.5398594" lon="17.6338935">
        <ele>36</ele>
        <time>2012-03-17T10:45:25Z</time>
      </trkpt>
      <trkpt lat="59.5402557" lon="17.6337493">
        <ele>36</ele>
        <time>2012-03-17T10:45:30Z</time>
      </trkpt>
      <trkpt lat="59.5406629" lon="17.6335824">
        <ele>39</ele>
        <time>2012-03-17T10:45:34Z</time>
      </trkpt>
      <trkpt lat="59.5410685" lon="17.6334342">
        <ele>37.6</ele>
        <time>2012-03-17T10:45:39Z</time>
      </trkpt>
      <trkpt lat="59.5414705" lon="17.6332872">
        <ele>34.2</ele>
        <time>2012-03-17T10:45:44Z</time>
      </trkpt>
      <trkpt lat="59.5418644" lon="17.6331497">
        <ele>32.8</ele>
        <time>2012-03-17T10:45:50Z</time>
      </trkpt>
      <trkpt lat="59.5422504" lon="17.6330465">
        <ele>31.8</ele>
        <time>2012-03-17T10:45:54Z</time>
      </trkpt>
      <trkpt lat="59.5426337" lon="17.632969">
        <ele>31.2</ele>
        <time>2012-03-17T10:46:00Z</time>
      </trkpt>
      <trkpt lat="59.5430126" lon="17.6329095">
        <ele>31.2</ele>
        <time>2012-03-17T10:46:04Z</time>
      </trkpt>
      <trkpt lat="59.5434017" lon="17.6328929">
        <ele>29.2</ele>
        <time>2012-03-17T10:46:09Z</time>
      </trkpt>
      <trkpt lat="59.5437931" lon="17.6328934">
        <ele>27.8</ele>
        <time>2012-03-17T10:46:15Z</time>
      </trkpt>
      <trkpt lat="59.5441913" lon="17.6329074">
        <ele>26.6</ele>
        <time>2012-03-17T10:46:19Z</time>
      </trkpt>
      <trkpt lat="59.5445764" lon="17.632923">
        <ele>25.6</ele>
        <time>2012-03-17T10:46:25Z</time>
      </trkpt>
      <trkpt lat="59.5449639" lon="17.6329359">
        <ele>24.4</ele>
        <time>2012-03-17T10:46:30Z</time>
      </trkpt>
      <trkpt lat="59.5453472" lon="17.6329544">
        <ele>23.6</ele>
        <time>2012-03-17T10:46:35Z</time>
      </trkpt>
      <trkpt lat="59.5457241" lon="17.6329592">
        <ele>24.6</ele>
        <time>2012-03-17T10:46:40Z</time>
      </trkpt>
      <trkpt lat="59.54609" lon="17.632982">
        <ele>25.6</ele>
        <time>2012-03-17T10:46:45Z</time>
      </trkpt>
      <trkpt lat="59.5464589" lon="17.6329999">
        <ele>25</ele>
        <time>2012-03-17T10:46:50Z</time>
      </trkpt>
      <trkpt lat="59.5468422" lon="17.6330075">
        <ele>25.4</ele>
        <time>2012-03-17T10:46:55Z</time>
      </trkpt>
      <trkpt lat="59.5472447" lon="17.6329955">
        <ele>29</ele>
        <time>2012-03-17T10:47:00Z</time>
      </trkpt>
      <trkpt lat="59.5476338" lon="17.6330108">
        <ele>28.8</ele>
        <time>2012-03-17T10:47:05Z</time>
      </trkpt>
      <trkpt lat="59.5480348" lon="17.6330251">
        <ele>28</ele>
        <time>2012-03-17T10:47:10Z</time>
      </trkpt>
      <trkpt lat="59.548433" lon="17.6330188">
        <ele>27.8</ele>
        <time>2012-03-17T10:47:15Z</time>
      </trkpt>
      <trkpt lat="59.5488294" lon="17.6330254">
        <ele>29.6</ele>
        <time>2012-03-17T10:47:20Z</time>
      </trkpt>
      <trkpt lat="59.5492292" lon="17.6330358">
        <ele>29.6</ele>
        <time>2012-03-17T10:47:25Z</time>
      </trkpt>
      <trkpt lat="59.5496484" lon="17.6330531">
        <ele>31.8</ele>
        <time>2012-03-17T10:47:30Z</time>
      </trkpt>
      <trkpt lat="59.5500739" lon="17.6330683">
        <ele>30.8</ele>
        <time>2012-03-17T10:47:35Z</time>
      </trkpt>
      <trkpt lat="59.5504929" lon="17.6330892">
        <ele>29.4</ele>
        <time>2012-03-17T10:47:40Z</time>
      </trkpt>
      <trkpt lat="59.5509075" lon="17.6330976">
        <ele>29.6</ele>
        <time>2012-03-17T10:47:45Z</time>
      </trkpt>
      <trkpt lat="59.5513115" lon="17.6331141">
        <ele>27.8</ele>
        <time>2012-03-17T10:47:50Z</time>
      </trkpt>
      <trkpt lat="59.5517137" lon="17.6331448">
        <ele>28.2</ele>
        <time>2012-03-17T10:47:55Z</time>
      </trkpt>
      <trkpt lat="59.5521052" lon="17.6331985">
        <ele>28</ele>
        <time>2012-03-17T10:48:00Z</time>
      </trkpt>
      <trkpt lat="59.5524972" lon="17.6332732">
        <ele>27.6</ele>
        <time>2012-03-17T10:48:05Z</time>
      </trkpt>
      <trkpt lat="59.552891" lon="17.6333677">
        <ele>27.8</ele>
        <time>2012-03-17T10:48:10Z</time>
      </trkpt>
      <trkpt lat="59.5532785" lon="17.633486">
        <ele>28.2</ele>
        <time>2012-03-17T10:48:15Z</time>
      </trkpt>
      <trkpt lat="59.5536623" lon="17.6335952">
        <ele>33.4</ele>
        <time>2012-03-17T10:48:20Z</time>
      </trkpt>
      <trkpt lat="59.554027" lon="17.6337391">
        <ele>36.6</ele>
        <time>2012-03-17T10:48:25Z</time>
      </trkpt>
      <trkpt lat="59.5544419" lon="17.6339202">
        <ele>37.6</ele>
        <time>2012-03-17T10:48:31Z</time>
      </trkpt>
      <trkpt lat="59.5548071" lon="17.6341038">
        <ele>38</ele>
        <time>2012-03-17T10:48:37Z</time>
      </trkpt>
      <trkpt lat="59.5551687" lon="17.6343268">
        <ele>38.2</ele>
        <time>2012-03-17T10:48:43Z</time>
      </trkpt>
      <trkpt lat="59.5555441" lon="17.6346027">
        <ele>40</ele>
        <time>2012-03-17T10:48:49Z</time>
      </trkpt>
      <trkpt lat="59.5557146" lon="17.6347184">
        <ele>40.6</ele>
        <time>2012-03-17T10:48:52Z</time>
      </trkpt>
      <trkpt lat="59.5558938" lon="17.6348696">
        <ele>40.6</ele>
        <time>2012-03-17T10:48:55Z</time>
      </trkpt>
      <trkpt lat="59.5562814" lon="17.6351609">
        <ele>42.2</ele>
        <time>2012-03-17T10:49:01Z</time>
      </trkpt>
      <trkpt lat="59.5566684" lon="17.6354716">
        <ele>42.2</ele>
        <time>2012-03-17T10:49:07Z</time>
      </trkpt>
      <trkpt lat="59.5570541" lon="17.6358096">
        <ele>43.2</ele>
        <time>2012-03-17T10:49:13Z</time>
      </trkpt>
      <trkpt lat="59.5574188" lon="17.6361232">
        <ele>44.2</ele>
        <time>2012-03-17T10:49:19Z</time>
      </trkpt>
      <trkpt lat="59.5577819" lon="17.6364231">
        <ele>44.8</ele>
        <time>2012-03-17T10:49:25Z</time>
      </trkpt>
      <trkpt lat="59.558141" lon="17.6367262">
        <ele>47</ele>
        <time>2012-03-17T10:49:31Z</time>
      </trkpt>
      <trkpt lat="59.5585039" lon="17.6370137">
        <ele>47.8</ele>
        <time>2012-03-17T10:49:37Z</time>
      </trkpt>
      <trkpt lat="59.5588795" lon="17.6372916">
        <ele>48.4</ele>
        <time>2012-03-17T10:49:43Z</time>
      </trkpt>
      <trkpt lat="59.5592698" lon="17.6375514">
        <ele>49.8</ele>
        <time>2012-03-17T10:49:49Z</time>
      </trkpt>
      <trkpt lat="59.559683" lon="17.6377928">
        <ele>47.4</ele>
        <time>2012-03-17T10:49:55Z</time>
      </trkpt>
      <trkpt lat="59.5600601" lon="17.6380004">
        <ele>47.6</ele>
        <time>2012-03-17T10:50:00Z</time>
      </trkpt>
      <trkpt lat="59.5604695" lon="17.6382067">
        <ele>46.2</ele>
        <time>2012-03-17T10:50:05Z</time>
      </trkpt>
      <trkpt lat="59.560888" lon="17.6383776">
        <ele>46.6</ele>
        <time>2012-03-17T10:50:10Z</time>
      </trkpt>
      <trkpt lat="59.5613211" lon="17.6385154">
        <ele>47</ele>
        <time>2012-03-17T10:50:15Z</time>
      </trkpt>
      <trkpt lat="59.5617604" lon="17.6386271">
        <ele>48</ele>
        <time>2012-03-17T10:50:20Z</time>
      </trkpt>
      <trkpt lat="59.5621215" lon="17.6386935">
        <ele>48.6</ele>
        <time>2012-03-17T10:50:24Z</time>
      </trkpt>
      <trkpt lat="59.5624877" lon="17.6387543">
        <ele>48.8</ele>
        <time>2012-03-17T10:50:28Z</time>
      </trkpt>
      <trkpt lat="59.5628614" lon="17.6387944">
        <ele>48.8</ele>
        <time>2012-03-17T10:50:32Z</time>
      </trkpt>
      <trkpt lat="59.5632393" lon="17.6388091">
        <ele>50</ele>
        <time>2012-03-17T10:50:36Z</time>
      </trkpt>
      <trkpt lat="59.5636139" lon="17.6388108">
        <ele>51.4</ele>
        <time>2012-03-17T10:50:40Z</time>
      </trkpt>
      <trkpt lat="59.5639826" lon="17.6387877">
        <ele>53.2</ele>
        <time>2012-03-17T10:50:44Z</time>
      </trkpt>
      <trkpt lat="59.5643488" lon="17.6387485">
        <ele>55</ele>
        <time>2012-03-17T10:50:48Z</time>
      </trkpt>
      <trkpt lat="59.5647133" lon="17.6386831">
        <ele>54.4</ele>
        <time>2012-03-17T10:50:52Z</time>
      </trkpt>
      <trkpt lat="59.5650812" lon="17.6386177">
        <ele>52.4</ele>
        <time>2012-03-17T10:50:56Z</time>
      </trkpt>
      <trkpt lat="59.5654543" lon="17.6385504">
        <ele>48.6</ele>
        <time>2012-03-17T10:51:00Z</time>
      </trkpt>
      <trkpt lat="59.5658172" lon="17.6385009">
        <ele>43</ele>
        <time>2012-03-17T10:51:03Z</time>
      </trkpt>
      <trkpt lat="59.5661674" lon="17.6384413">
        <ele>39</ele>
        <time>2012-03-17T10:51:08Z</time>
      </trkpt>
      <trkpt lat="59.5666119" lon="17.6383356">
        <ele>40</ele>
        <time>2012-03-17T10:51:13Z</time>
      </trkpt>
      <trkpt lat="59.5670302" lon="17.6382389">
        <ele>40.8</ele>
        <time>2012-03-17T10:51:18Z</time>
      </trkpt>
      <trkpt lat="59.5674341" lon="17.6381591">
        <ele>38.2</ele>
        <time>2012-03-17T10:51:23Z</time>
      </trkpt>
      <trkpt lat="59.5678313" lon="17.6380645">
        <ele>38.2</ele>
        <time>2012-03-17T10:51:28Z</time>
      </trkpt>
      <trkpt lat="59.5680391" lon="17.6380427">
        <ele>37</ele>
        <time>2012-03-17T10:51:31Z</time>
      </trkpt>
      <trkpt lat="59.568193" lon="17.6381806">
        <ele>35.4</ele>
        <time>2012-03-17T10:51:34Z</time>
      </trkpt>
      <trkpt lat="59.5682712" lon="17.6386038">
        <ele>34.8</ele>
        <time>2012-03-17T10:51:38Z</time>
      </trkpt>
      <trkpt lat="59.5683081" lon="17.6389418">
        <ele>35.4</ele>
        <time>2012-03-17T10:51:41Z</time>
      </trkpt>
      <trkpt lat="59.568398" lon="17.6397234">
        <ele>36</ele>
        <time>2012-03-17T10:51:47Z</time>
      </trkpt>
      <trkpt lat="59.5684923" lon="17.6404039">
        <ele>37.2</ele>
        <time>2012-03-17T10:51:52Z</time>
      </trkpt>
      <trkpt lat="59.5686363" lon="17.6410838">
        <ele>36.6</ele>
        <time>2012-03-17T10:51:57Z</time>
      </trkpt>
      <trkpt lat="59.5688328" lon="17.6417305">
        <ele>35.2</ele>
        <time>2012-03-17T10:52:02Z</time>
      </trkpt>
      <trkpt lat="59.5690885" lon="17.6423236">
        <ele>33.2</ele>
        <time>2012-03-17T10:52:07Z</time>
      </trkpt>
      <trkpt lat="59.5693936" lon="17.642861">
        <ele>31.6</ele>
        <time>2012-03-17T10:52:12Z</time>
      </trkpt>
      <trkpt lat="59.5697416" lon="17.6433003">
        <ele>32</ele>
        <time>2012-03-17T10:52:17Z</time>
      </trkpt>
      <trkpt lat="59.5701172" lon="17.6436639">
        <ele>33.2</ele>
        <time>2012-03-17T10:52:22Z</time>
      </trkpt>
      <trkpt lat="59.5705097" lon="17.6440213">
        <ele>34.2</ele>
        <time>2012-03-17T10:52:27Z</time>
      </trkpt>
      <trkpt lat="59.5708999" lon="17.6443861">
        <ele>35</ele>
        <time>2012-03-17T10:52:32Z</time>
      </trkpt>
      <trkpt lat="59.5712891" lon="17.6447438">
        <ele>35.6</ele>
        <time>2012-03-17T10:52:37Z</time>
      </trkpt>
      <trkpt lat="59.5715922" lon="17.6449725">
        <ele>36</ele>
        <time>2012-03-17T10:52:41Z</time>
      </trkpt>
      <trkpt lat="59.5716684" lon="17.6450459">
        <ele>35.2</ele>
        <time>2012-03-17T10:52:42Z</time>
      </trkpt>
      <trkpt lat="59.5717445" lon="17.6451294">
        <ele>34.8</ele>
        <time>2012-03-17T10:52:43Z</time>
      </trkpt>
      <trkpt lat="59.5720574" lon="17.6454768">
        <ele>37</ele>
        <time>2012-03-17T10:52:47Z</time>
      </trkpt>
      <trkpt lat="59.572449" lon="17.6458814">
        <ele>37.4</ele>
        <time>2012-03-17T10:52:52Z</time>
      </trkpt>
      <trkpt lat="59.5727623" lon="17.6462258">
        <ele>36.6</ele>
        <time>2012-03-17T10:52:56Z</time>
      </trkpt>
      <trkpt lat="59.5730727" lon="17.6465983">
        <ele>36</ele>
        <time>2012-03-17T10:53:00Z</time>
      </trkpt>
      <trkpt lat="59.5733856" lon="17.6469847">
        <ele>34.4</ele>
        <time>2012-03-17T10:53:04Z</time>
      </trkpt>
      <trkpt lat="59.5737036" lon="17.64737">
        <ele>33.2</ele>
        <time>2012-03-17T10:53:08Z</time>
      </trkpt>
      <trkpt lat="59.5740169" lon="17.6477611">
        <ele>31</ele>
        <time>2012-03-17T10:53:12Z</time>
      </trkpt>
      <trkpt lat="59.5743402" lon="17.6481567">
        <ele>29.4</ele>
        <time>2012-03-17T10:53:16Z</time>
      </trkpt>
      <trkpt lat="59.5746576" lon="17.6485435">
        <ele>29.8</ele>
        <time>2012-03-17T10:53:20Z</time>
      </trkpt>
      <trkpt lat="59.57498" lon="17.6489448">
        <ele>28</ele>
        <time>2012-03-17T10:53:24Z</time>
      </trkpt>
      <trkpt lat="59.5752981" lon="17.6493291">
        <ele>27.8</ele>
        <time>2012-03-17T10:53:28Z</time>
      </trkpt>
      <trkpt lat="59.5756154" lon="17.6497064">
        <ele>27.6</ele>
        <time>2012-03-17T10:53:32Z</time>
      </trkpt>
      <trkpt lat="59.5759387" lon="17.6500888">
        <ele>26.6</ele>
        <time>2012-03-17T10:53:36Z</time>
      </trkpt>
      <trkpt lat="59.5762719" lon="17.6504716">
        <ele>26</ele>
        <time>2012-03-17T10:53:40Z</time>
      </trkpt>
      <trkpt lat="59.5766065" lon="17.6508369">
        <ele>26.2</ele>
        <time>2012-03-17T10:53:44Z</time>
      </trkpt>
      <trkpt lat="59.5769487" lon="17.6511853">
        <ele>26.8</ele>
        <time>2012-03-17T10:53:48Z</time>
      </trkpt>
      <trkpt lat="59.5772866" lon="17.6515206">
        <ele>26.4</ele>
        <time>2012-03-17T10:53:52Z</time>
      </trkpt>
      <trkpt lat="59.5776252" lon="17.6518319">
        <ele>25.8</ele>
        <time>2012-03-17T10:53:56Z</time>
      </trkpt>
      <trkpt lat="59.5779669" lon="17.6521292">
        <ele>25.2</ele>
        <time>2012-03-17T10:54:00Z</time>
      </trkpt>
      <trkpt lat="59.5782984" lon="17.6523964">
        <ele>25</ele>
        <time>2012-03-17T10:54:04Z</time>
      </trkpt>
      <trkpt lat="59.5786318" lon="17.6526537">
        <ele>24.6</ele>
        <time>2012-03-17T10:54:08Z</time>
      </trkpt>
      <trkpt lat="59.5789681" lon="17.6529005">
        <ele>24.4</ele>
        <time>2012-03-17T10:54:12Z</time>
      </trkpt>
      <trkpt lat="59.579384" lon="17.653187">
        <ele>24</ele>
        <time>2012-03-17T10:54:17Z</time>
      </trkpt>
      <trkpt lat="59.5798006" lon="17.6534423">
        <ele>24.2</ele>
        <time>2012-03-17T10:54:22Z</time>
      </trkpt>
      <trkpt lat="59.5802163" lon="17.6536874">
        <ele>23.8</ele>
        <time>2012-03-17T10:54:27Z</time>
      </trkpt>
      <trkpt lat="59.5806381" lon="17.6539247">
        <ele>23.4</ele>
        <time>2012-03-17T10:54:32Z</time>
      </trkpt>
      <trkpt lat="59.5810602" lon="17.6541666">
        <ele>23</ele>
        <time>2012-03-17T10:54:37Z</time>
      </trkpt>
      <trkpt lat="59.581477" lon="17.6543939">
        <ele>22.8</ele>
        <time>2012-03-17T10:54:42Z</time>
      </trkpt>
      <trkpt lat="59.5818852" lon="17.6546279">
        <ele>22</ele>
        <time>2012-03-17T10:54:47Z</time>
      </trkpt>
      <trkpt lat="59.5822962" lon="17.6548591">
        <ele>21.4</ele>
        <time>2012-03-17T10:54:51Z</time>
      </trkpt>
      <trkpt lat="59.5826906" lon="17.6550875">
        <ele>21.2</ele>
        <time>2012-03-17T10:54:57Z</time>
      </trkpt>
      <trkpt lat="59.5830666" lon="17.6552904">
        <ele>21</ele>
        <time>2012-03-17T10:55:02Z</time>
      </trkpt>
      <trkpt lat="59.5834365" lon="17.6555">
        <ele>18.8</ele>
        <time>2012-03-17T10:55:07Z</time>
      </trkpt>
      <trkpt lat="59.5835685" lon="17.6555745">
        <ele>18</ele>
        <time>2012-03-17T10:55:09Z</time>
      </trkpt>
      <trkpt lat="59.5838379" lon="17.6557416">
        <ele>17.2</ele>
        <time>2012-03-17T10:55:13Z</time>
      </trkpt>
      <trkpt lat="59.5841734" lon="17.6560657">
        <ele>16.6</ele>
        <time>2012-03-17T10:55:18Z</time>
      </trkpt>
      <trkpt lat="59.584486" lon="17.6564787">
        <ele>16.8</ele>
        <time>2012-03-17T10:55:23Z</time>
      </trkpt>
      <trkpt lat="59.5847636" lon="17.6569786">
        <ele>16.6</ele>
        <time>2012-03-17T10:55:27Z</time>
      </trkpt>
      <trkpt lat="59.5850061" lon="17.6575662">
        <ele>16.2</ele>
        <time>2012-03-17T10:55:33Z</time>
      </trkpt>
      <trkpt lat="59.5852115" lon="17.6581815">
        <ele>16.2</ele>
        <time>2012-03-17T10:55:38Z</time>
      </trkpt>
      <trkpt lat="59.5854096" lon="17.6588074">
        <ele>16.4</ele>
        <time>2012-03-17T10:55:43Z</time>
      </trkpt>
      <trkpt lat="59.5856112" lon="17.6594382">
        <ele>16.6</ele>
        <time>2012-03-17T10:55:48Z</time>
      </trkpt>
      <trkpt lat="59.5858414" lon="17.6601406">
        <ele>17.2</ele>
        <time>2012-03-17T10:55:54Z</time>
      </trkpt>
      <trkpt lat="59.586037" lon="17.660763">
        <ele>17.6</ele>
        <time>2012-03-17T10:56:00Z</time>
      </trkpt>
      <trkpt lat="59.5859732" lon="17.6612245">
        <ele>18</ele>
        <time>2012-03-17T10:56:05Z</time>
      </trkpt>
      <trkpt lat="59.585899" lon="17.6614011">
        <ele>18</ele>
        <time>2012-03-17T10:56:07Z</time>
      </trkpt>
      <trkpt lat="59.5856737" lon="17.6619796">
        <ele>17.6</ele>
        <time>2012-03-17T10:56:13Z</time>
      </trkpt>
      <trkpt lat="59.585449" lon="17.662606">
        <ele>18</ele>
        <time>2012-03-17T10:56:19Z</time>
      </trkpt>
      <trkpt lat="59.5852263" lon="17.6632597">
        <ele>18.6</ele>
        <time>2012-03-17T10:56:25Z</time>
      </trkpt>
      <trkpt lat="59.58501" lon="17.6639661">
        <ele>18.4</ele>
        <time>2012-03-17T10:56:31Z</time>
      </trkpt>
      <trkpt lat="59.5848112" lon="17.6647037">
        <ele>18.4</ele>
        <time>2012-03-17T10:56:37Z</time>
      </trkpt>
      <trkpt lat="59.5846435" lon="17.6653386">
        <ele>18.2</ele>
        <time>2012-03-17T10:56:42Z</time>
      </trkpt>
      <trkpt lat="59.5844726" lon="17.6660063">
        <ele>17.4</ele>
        <time>2012-03-17T10:56:47Z</time>
      </trkpt>
      <trkpt lat="59.584271" lon="17.6667296">
        <ele>16.2</ele>
        <time>2012-03-17T10:56:51Z</time>
      </trkpt>
      <trkpt lat="59.5840694" lon="17.6674654">
        <ele>15.2</ele>
        <time>2012-03-17T10:56:57Z</time>
      </trkpt>
      <trkpt lat="59.5838716" lon="17.6681907">
        <ele>14.6</ele>
        <time>2012-03-17T10:57:02Z</time>
      </trkpt>
      <trkpt lat="59.583654" lon="17.668896">
        <ele>14.6</ele>
        <time>2012-03-17T10:57:07Z</time>
      </trkpt>
      <trkpt lat="59.583427" lon="17.6695342">
        <ele>14.2</ele>
        <time>2012-03-17T10:57:12Z</time>
      </trkpt>
      <trkpt lat="59.5831806" lon="17.6701177">
        <ele>14.8</ele>
        <time>2012-03-17T10:57:17Z</time>
      </trkpt>
      <trkpt lat="59.5828755" lon="17.6707464">
        <ele>13.8</ele>
        <time>2012-03-17T10:57:23Z</time>
      </trkpt>
      <trkpt lat="59.5825599" lon="17.6713032">
        <ele>13.4</ele>
        <time>2012-03-17T10:57:29Z</time>
      </trkpt>
      <trkpt lat="59.5822358" lon="17.6718379">
        <ele>12</ele>
        <time>2012-03-17T10:57:35Z</time>
      </trkpt>
      <trkpt lat="59.5819135" lon="17.6723641">
        <ele>12</ele>
        <time>2012-03-17T10:57:41Z</time>
      </trkpt>
      <trkpt lat="59.5815805" lon="17.6728993">
        <ele>11.8</ele>
        <time>2012-03-17T10:57:47Z</time>
      </trkpt>
      <trkpt lat="59.5812581" lon="17.6734308">
        <ele>11.4</ele>
        <time>2012-03-17T10:57:53Z</time>
      </trkpt>
      <trkpt lat="59.5809291" lon="17.6739649">
        <ele>11</ele>
        <time>2012-03-17T10:57:59Z</time>
      </trkpt>
      <trkpt lat="59.580605" lon="17.6744732">
        <ele>11</ele>
        <time>2012-03-17T10:58:05Z</time>
      </trkpt>
      <trkpt lat="59.5802636" lon="17.6749138">
        <ele>11.4</ele>
        <time>2012-03-17T10:58:11Z</time>
      </trkpt>
      <trkpt lat="59.5798939" lon="17.675293">
        <ele>11.8</ele>
        <time>2012-03-17T10:58:17Z</time>
      </trkpt>
      <trkpt lat="59.5795142" lon="17.675564">
        <ele>13</ele>
        <time>2012-03-17T10:58:23Z</time>
      </trkpt>
      <trkpt lat="59.5791615" lon="17.6757298">
        <ele>15.2</ele>
        <time>2012-03-17T10:58:29Z</time>
      </trkpt>
      <trkpt lat="59.5787835" lon="17.6758556">
        <ele>18.4</ele>
        <time>2012-03-17T10:58:36Z</time>
      </trkpt>
      <trkpt lat="59.5784162" lon="17.6759684">
        <ele>23.2</ele>
        <time>2012-03-17T10:58:44Z</time>
      </trkpt>
      <trkpt lat="59.5780568" lon="17.6761038">
        <ele>26</ele>
        <time>2012-03-17T10:58:51Z</time>
      </trkpt>
      <trkpt lat="59.577671" lon="17.6763078">
        <ele>28.6</ele>
        <time>2012-03-17T10:58:59Z</time>
      </trkpt>
      <trkpt lat="59.5772913" lon="17.6766637">
        <ele>28.8</ele>
        <time>2012-03-17T10:59:07Z</time>
      </trkpt>
      <trkpt lat="59.5769417" lon="17.6770723">
        <ele>32.2</ele>
        <time>2012-03-17T10:59:15Z</time>
      </trkpt>
      <trkpt lat="59.57662" lon="17.6774609">
        <ele>35.6</ele>
        <time>2012-03-17T10:59:22Z</time>
      </trkpt>
      <trkpt lat="59.5763056" lon="17.677848">
        <ele>35</ele>
        <time>2012-03-17T10:59:29Z</time>
      </trkpt>
      <trkpt lat="59.5761684" lon="17.6780397">
        <ele>33.6</ele>
        <time>2012-03-17T10:59:32Z</time>
      </trkpt>
      <trkpt lat="59.5759824" lon="17.6783201">
        <ele>32.4</ele>
        <time>2012-03-17T10:59:36Z</time>
      </trkpt>
      <trkpt lat="59.5757253" lon="17.6788036">
        <ele>34.2</ele>
        <time>2012-03-17T10:59:42Z</time>
      </trkpt>
      <trkpt lat="59.5755005" lon="17.679431">
        <ele>35</ele>
        <time>2012-03-17T10:59:48Z</time>
      </trkpt>
      <trkpt lat="59.5753124" lon="17.6801318">
        <ele>34.8</ele>
        <time>2012-03-17T10:59:54Z</time>
      </trkpt>
      <trkpt lat="59.5751305" lon="17.6807958">
        <ele>34.8</ele>
        <time>2012-03-17T10:59:59Z</time>
      </trkpt>
      <trkpt lat="59.5749416" lon="17.6814013">
        <ele>33.8</ele>
        <time>2012-03-17T11:00:04Z</time>
      </trkpt>
      <trkpt lat="59.5747011" lon="17.681991">
        <ele>33.6</ele>
        <time>2012-03-17T11:00:09Z</time>
      </trkpt>
      <trkpt lat="59.5743361" lon="17.682595">
        <ele>30.2</ele>
        <time>2012-03-17T11:00:14Z</time>
      </trkpt>
      <trkpt lat="59.5739476" lon="17.683084">
        <ele>25.4</ele>
        <time>2012-03-17T11:00:19Z</time>
      </trkpt>
      <trkpt lat="59.5735449" lon="17.6834">
        <ele>23.6</ele>
        <time>2012-03-17T11:00:24Z</time>
      </trkpt>
      <trkpt lat="59.573151" lon="17.6836429">
        <ele>23.6</ele>
        <time>2012-03-17T11:00:29Z</time>
      </trkpt>
      <trkpt lat="59.5727732" lon="17.6838635">
        <ele>24</ele>
        <time>2012-03-17T11:00:34Z</time>
      </trkpt>
      <trkpt lat="59.5724038" lon="17.6840876">
        <ele>23.8</ele>
        <time>2012-03-17T11:00:39Z</time>
      </trkpt>
      <trkpt lat="59.5720341" lon="17.6843137">
        <ele>23.2</ele>
        <time>2012-03-17T11:00:44Z</time>
      </trkpt>
      <trkpt lat="59.5716513" lon="17.6845447">
        <ele>22.2</ele>
        <time>2012-03-17T11:00:49Z</time>
      </trkpt>
      <trkpt lat="59.5712498" lon="17.6847916">
        <ele>21</ele>
        <time>2012-03-17T11:00:54Z</time>
      </trkpt>
      <trkpt lat="59.5708403" lon="17.6850388">
        <ele>20.4</ele>
        <time>2012-03-17T11:00:59Z</time>
      </trkpt>
      <trkpt lat="59.5704406" lon="17.685287">
        <ele>19.8</ele>
        <time>2012-03-17T11:01:04Z</time>
      </trkpt>
      <trkpt lat="59.5700599" lon="17.6855134">
        <ele>19</ele>
        <time>2012-03-17T11:01:09Z</time>
      </trkpt>
      <trkpt lat="59.5697153" lon="17.6857205">
        <ele>20.2</ele>
        <time>2012-03-17T11:01:14Z</time>
      </trkpt>
      <trkpt lat="59.5693415" lon="17.6859419">
        <ele>21.6</ele>
        <time>2012-03-17T11:01:20Z</time>
      </trkpt>
      <trkpt lat="59.5689851" lon="17.6861474">
        <ele>22.4</ele>
        <time>2012-03-17T11:01:26Z</time>
      </trkpt>
      <trkpt lat="59.5686209" lon="17.6863731">
        <ele>22.2</ele>
        <time>2012-03-17T11:01:32Z</time>
      </trkpt>
      <trkpt lat="59.5682516" lon="17.6866177">
        <ele>23.6</ele>
        <time>2012-03-17T11:01:38Z</time>
      </trkpt>
      <trkpt lat="59.5680065" lon="17.6868165">
        <ele>23.2</ele>
        <time>2012-03-17T11:01:42Z</time>
      </trkpt>
      <trkpt lat="59.5678796" lon="17.6869431">
        <ele>22.2</ele>
        <time>2012-03-17T11:01:44Z</time>
      </trkpt>
      <trkpt lat="59.5675175" lon="17.6873911">
        <ele>20.4</ele>
        <time>2012-03-17T11:01:50Z</time>
      </trkpt>
      <trkpt lat="59.5672228" lon="17.6878444">
        <ele>17.4</ele>
        <time>2012-03-17T11:01:55Z</time>
      </trkpt>
      <trkpt lat="59.5669379" lon="17.6883738">
        <ele>14.6</ele>
        <time>2012-03-17T11:02:00Z</time>
      </trkpt>
      <trkpt lat="59.5666654" lon="17.6889508">
        <ele>13.2</ele>
        <time>2012-03-17T11:02:05Z</time>
      </trkpt>
      <trkpt lat="59.5663959" lon="17.6895317">
        <ele>11.8</ele>
        <time>2012-03-17T11:02:10Z</time>
      </trkpt>
      <trkpt lat="59.5661285" lon="17.6901185">
        <ele>11.6</ele>
        <time>2012-03-17T11:02:15Z</time>
      </trkpt>
      <trkpt lat="59.5658885" lon="17.6906382">
        <ele>13.2</ele>
        <time>2012-03-17T11:02:20Z</time>
      </trkpt>
      <trkpt lat="59.5656585" lon="17.6911953">
        <ele>21.8</ele>
        <time>2012-03-17T11:02:26Z</time>
      </trkpt>
      <trkpt lat="59.5654889" lon="17.6917234">
        <ele>26.4</ele>
        <time>2012-03-17T11:02:31Z</time>
      </trkpt>
      <trkpt lat="59.5654584" lon="17.6918284">
        <ele>27.2</ele>
        <time>2012-03-17T11:02:32Z</time>
      </trkpt>
      <trkpt lat="59.565265" lon="17.6925253">
        <ele>29.4</ele>
        <time>2012-03-17T11:02:38Z</time>
      </trkpt>
      <trkpt lat="59.5651108" lon="17.6932011">
        <ele>28</ele>
        <time>2012-03-17T11:02:43Z</time>
      </trkpt>
      <trkpt lat="59.5649689" lon="17.6939254">
        <ele>26.4</ele>
        <time>2012-03-17T11:02:48Z</time>
      </trkpt>
      <trkpt lat="59.5648685" lon="17.6946692">
        <ele>25.6</ele>
        <time>2012-03-17T11:02:53Z</time>
      </trkpt>
      <trkpt lat="59.5647962" lon="17.6954075">
        <ele>25.6</ele>
        <time>2012-03-17T11:02:58Z</time>
      </trkpt>
      <trkpt lat="59.5647247" lon="17.6961153">
        <ele>27</ele>
        <time>2012-03-17T11:03:03Z</time>
      </trkpt>
      <trkpt lat="59.564656" lon="17.6968353">
        <ele>26.8</ele>
        <time>2012-03-17T11:03:08Z</time>
      </trkpt>
      <trkpt lat="59.5645996" lon="17.6975632">
        <ele>26</ele>
        <time>2012-03-17T11:03:13Z</time>
      </trkpt>
      <trkpt lat="59.5645457" lon="17.698279">
        <ele>26.2</ele>
        <time>2012-03-17T11:03:18Z</time>
      </trkpt>
      <trkpt lat="59.5644865" lon="17.6989884">
        <ele>26.6</ele>
        <time>2012-03-17T11:03:23Z</time>
      </trkpt>
      <trkpt lat="59.5644196" lon="17.6997075">
        <ele>28.4</ele>
        <time>2012-03-17T11:03:28Z</time>
      </trkpt>
      <trkpt lat="59.5643569" lon="17.7004149">
        <ele>29.2</ele>
        <time>2012-03-17T11:03:33Z</time>
      </trkpt>
      <trkpt lat="59.5643037" lon="17.7011436">
        <ele>29</ele>
        <time>2012-03-17T11:03:38Z</time>
      </trkpt>
      <trkpt lat="59.5642401" lon="17.7018659">
        <ele>28.6</ele>
        <time>2012-03-17T11:03:43Z</time>
      </trkpt>
      <trkpt lat="59.5641756" lon="17.7026018">
        <ele>28.6</ele>
        <time>2012-03-17T11:03:48Z</time>
      </trkpt>
      <trkpt lat="59.5641111" lon="17.7033804">
        <ele>27.8</ele>
        <time>2012-03-17T11:03:53Z</time>
      </trkpt>
      <trkpt lat="59.5640535" lon="17.7041204">
        <ele>28</ele>
        <time>2012-03-17T11:03:58Z</time>
      </trkpt>
      <trkpt lat="59.5639921" lon="17.7048248">
        <ele>28.8</ele>
        <time>2012-03-17T11:04:03Z</time>
      </trkpt>
      <trkpt lat="59.5639058" lon="17.705619">
        <ele>28.6</ele>
        <time>2012-03-17T11:04:09Z</time>
      </trkpt>
      <trkpt lat="59.563792" lon="17.7064234">
        <ele>27.8</ele>
        <time>2012-03-17T11:04:15Z</time>
      </trkpt>
      <trkpt lat="59.5636324" lon="17.7071791">
        <ele>26.4</ele>
        <time>2012-03-17T11:04:20Z</time>
      </trkpt>
      <trkpt lat="59.5634525" lon="17.7079456">
        <ele>26</ele>
        <time>2012-03-17T11:04:25Z</time>
      </trkpt>
      <trkpt lat="59.5632833" lon="17.7086938">
        <ele>25.4</ele>
        <time>2012-03-17T11:04:30Z</time>
      </trkpt>
      <trkpt lat="59.5632183" lon="17.7091239">
        <ele>26</ele>
        <time>2012-03-17T11:04:33Z</time>
      </trkpt>
      <trkpt lat="59.5631984" lon="17.7093969">
        <ele>27.2</ele>
        <time>2012-03-17T11:04:35Z</time>
      </trkpt>
      <trkpt lat="59.5632054" lon="17.710066">
        <ele>29</ele>
        <time>2012-03-17T11:04:40Z</time>
      </trkpt>
      <trkpt lat="59.5631895" lon="17.7101874">
        <ele>29</ele>
        <time>2012-03-17T11:04:41Z</time>
      </trkpt>
      <trkpt lat="59.5629045" lon="17.710541">
        <ele>26.2</ele>
        <time>2012-03-17T11:04:46Z</time>
      </trkpt>
      <trkpt lat="59.5628355" lon="17.7105866">
        <ele>25.6</ele>
        <time>2012-03-17T11:04:47Z</time>
      </trkpt>
      <trkpt lat="59.5624818" lon="17.7108318">
        <ele>23.6</ele>
        <time>2012-03-17T11:04:52Z</time>
      </trkpt>
      <trkpt lat="59.5621136" lon="17.7110985">
        <ele>22</ele>
        <time>2012-03-17T11:04:57Z</time>
      </trkpt>
      <trkpt lat="59.5617524" lon="17.71136">
        <ele>20.8</ele>
        <time>2012-03-17T11:05:02Z</time>
      </trkpt>
      <trkpt lat="59.5614095" lon="17.7116399">
        <ele>20</ele>
        <time>2012-03-17T11:05:07Z</time>
      </trkpt>
      <trkpt lat="59.5610361" lon="17.7119898">
        <ele>19.8</ele>
        <time>2012-03-17T11:05:13Z</time>
      </trkpt>
      <trkpt lat="59.5606978" lon="17.7123841">
        <ele>21</ele>
        <time>2012-03-17T11:05:19Z</time>
      </trkpt>
      <trkpt lat="59.5603768" lon="17.7128296">
        <ele>21.2</ele>
        <time>2012-03-17T11:05:25Z</time>
      </trkpt>
      <trkpt lat="59.5600811" lon="17.7133469">
        <ele>21.6</ele>
        <time>2012-03-17T11:05:31Z</time>
      </trkpt>
      <trkpt lat="59.5598147" lon="17.713909">
        <ele>21.2</ele>
        <time>2012-03-17T11:05:37Z</time>
      </trkpt>
      <trkpt lat="59.5595614" lon="17.7145256">
        <ele>20.6</ele>
        <time>2012-03-17T11:05:43Z</time>
      </trkpt>
      <trkpt lat="59.5593335" lon="17.7151756">
        <ele>23.6</ele>
        <time>2012-03-17T11:05:49Z</time>
      </trkpt>
      <trkpt lat="59.5591516" lon="17.7157567">
        <ele>25.4</ele>
        <time>2012-03-17T11:05:54Z</time>
      </trkpt>
      <trkpt lat="59.5589564" lon="17.7163824">
        <ele>27.2</ele>
        <time>2012-03-17T11:05:59Z</time>
      </trkpt>
      <trkpt lat="59.5587357" lon="17.7170836">
        <ele>27</ele>
        <time>2012-03-17T11:06:04Z</time>
      </trkpt>
      <trkpt lat="59.5585476" lon="17.7176674">
        <ele>26.6</ele>
        <time>2012-03-17T11:06:08Z</time>
      </trkpt>
      <trkpt lat="59.5583217" lon="17.7183024">
        <ele>25.4</ele>
        <time>2012-03-17T11:06:12Z</time>
      </trkpt>
      <trkpt lat="59.5580784" lon="17.718929">
        <ele>22</ele>
        <time>2012-03-17T11:06:16Z</time>
      </trkpt>
      <trkpt lat="59.557793" lon="17.7196125">
        <ele>20.2</ele>
        <time>2012-03-17T11:06:21Z</time>
      </trkpt>
      <trkpt lat="59.557514" lon="17.7201934">
        <ele>19.4</ele>
        <time>2012-03-17T11:06:26Z</time>
      </trkpt>
      <trkpt lat="59.5572227" lon="17.7207644">
        <ele>19.6</ele>
        <time>2012-03-17T11:06:32Z</time>
      </trkpt>
      <trkpt lat="59.5569278" lon="17.7212973">
        <ele>23.8</ele>
        <time>2012-03-17T11:06:39Z</time>
      </trkpt>
      <trkpt lat="59.5566388" lon="17.72182">
        <ele>29.2</ele>
        <time>2012-03-17T11:06:46Z</time>
      </trkpt>
      <trkpt lat="59.5563601" lon="17.722345">
        <ele>37</ele>
        <time>2012-03-17T11:06:53Z</time>
      </trkpt>
      <trkpt lat="59.5560575" lon="17.7228636">
        <ele>37.6</ele>
        <time>2012-03-17T11:07:00Z</time>
      </trkpt>
      <trkpt lat="59.5557432" lon="17.7233804">
        <ele>35.4</ele>
        <time>2012-03-17T11:07:08Z</time>
      </trkpt>
      <trkpt lat="59.5554324" lon="17.7239219">
        <ele>33.2</ele>
        <time>2012-03-17T11:07:16Z</time>
      </trkpt>
      <trkpt lat="59.5551516" lon="17.7244459">
        <ele>32</ele>
        <time>2012-03-17T11:07:23Z</time>
      </trkpt>
      <trkpt lat="59.5548694" lon="17.7250298">
        <ele>31.4</ele>
        <time>2012-03-17T11:07:30Z</time>
      </trkpt>
      <trkpt lat="59.5546191" lon="17.7255774">
        <ele>30.6</ele>
        <time>2012-03-17T11:07:36Z</time>
      </trkpt>
      <trkpt lat="59.554373" lon="17.7261595">
        <ele>30.4</ele>
        <time>2012-03-17T11:07:42Z</time>
      </trkpt>
      <trkpt lat="59.554129" lon="17.7267839">
        <ele>30.6</ele>
        <time>2012-03-17T11:07:48Z</time>
      </trkpt>
      <trkpt lat="59.553883" lon="17.7274525">
        <ele>30.2</ele>
        <time>2012-03-17T11:07:54Z</time>
      </trkpt>
      <trkpt lat="59.5536665" lon="17.7280428">
        <ele>28.8</ele>
        <time>2012-03-17T11:07:59Z</time>
      </trkpt>
      <trkpt lat="59.5534354" lon="17.7286687">
        <ele>27</ele>
        <time>2012-03-17T11:08:04Z</time>
      </trkpt>
      <trkpt lat="59.5531749" lon="17.7293521">
        <ele>24.6</ele>
        <time>2012-03-17T11:08:09Z</time>
      </trkpt>
      <trkpt lat="59.5529112" lon="17.7300606">
        <ele>23.4</ele>
        <time>2012-03-17T11:08:14Z</time>
      </trkpt>
      <trkpt lat="59.5526825" lon="17.7306585">
        <ele>23.8</ele>
        <time>2012-03-17T11:08:18Z</time>
      </trkpt>
      <trkpt lat="59.5524538" lon="17.73129">
        <ele>24.6</ele>
        <time>2012-03-17T11:08:22Z</time>
      </trkpt>
      <trkpt lat="59.5522098" lon="17.7319209">
        <ele>26.2</ele>
        <time>2012-03-17T11:08:26Z</time>
      </trkpt>
      <trkpt lat="59.5519445" lon="17.7325564">
        <ele>26.8</ele>
        <time>2012-03-17T11:08:30Z</time>
      </trkpt>
      <trkpt lat="59.5516308" lon="17.7332211">
        <ele>25</ele>
        <time>2012-03-17T11:08:34Z</time>
      </trkpt>
      <trkpt lat="59.5513622" lon="17.7337443">
        <ele>22.8</ele>
        <time>2012-03-17T11:08:37Z</time>
      </trkpt>
      <trkpt lat="59.5509878" lon="17.7344162">
        <ele>19.6</ele>
        <time>2012-03-17T11:08:41Z</time>
      </trkpt>
      <trkpt lat="59.5506216" lon="17.7349967">
        <ele>17.6</ele>
        <time>2012-03-17T11:08:45Z</time>
      </trkpt>
      <trkpt lat="59.5502797" lon="17.735498">
        <ele>16.2</ele>
        <time>2012-03-17T11:08:49Z</time>
      </trkpt>
      <trkpt lat="59.5499461" lon="17.7359378">
        <ele>15.6</ele>
        <time>2012-03-17T11:08:53Z</time>
      </trkpt>
      <trkpt lat="59.5496167" lon="17.73634">
        <ele>15</ele>
        <time>2012-03-17T11:08:57Z</time>
      </trkpt>
      <trkpt lat="59.5492971" lon="17.7367151">
        <ele>14.6</ele>
        <time>2012-03-17T11:09:01Z</time>
      </trkpt>
      <trkpt lat="59.5489102" lon="17.7370973">
        <ele>14.8</ele>
        <time>2012-03-17T11:09:06Z</time>
      </trkpt>
      <trkpt lat="59.5485407" lon="17.7373983">
        <ele>16</ele>
        <time>2012-03-17T11:09:11Z</time>
      </trkpt>
      <trkpt lat="59.5481963" lon="17.7376563">
        <ele>17.8</ele>
        <time>2012-03-17T11:09:16Z</time>
      </trkpt>
      <trkpt lat="59.5478037" lon="17.7379142">
        <ele>19.4</ele>
        <time>2012-03-17T11:09:22Z</time>
      </trkpt>
      <trkpt lat="59.5474415" lon="17.738127">
        <ele>20.8</ele>
        <time>2012-03-17T11:09:28Z</time>
      </trkpt>
      <trkpt lat="59.547039" lon="17.7383293">
        <ele>23</ele>
        <time>2012-03-17T11:09:35Z</time>
      </trkpt>
      <trkpt lat="59.5466638" lon="17.7384689">
        <ele>27</ele>
        <time>2012-03-17T11:09:42Z</time>
      </trkpt>
      <trkpt lat="59.5462973" lon="17.7385849">
        <ele>29.2</ele>
        <time>2012-03-17T11:09:49Z</time>
      </trkpt>
      <trkpt lat="59.5459068" lon="17.7387178">
        <ele>31.2</ele>
        <time>2012-03-17T11:09:57Z</time>
      </trkpt>
      <trkpt lat="59.5455193" lon="17.7388543">
        <ele>32.6</ele>
        <time>2012-03-17T11:10:05Z</time>
      </trkpt>
      <trkpt lat="59.5451212" lon="17.7390109">
        <ele>34.4</ele>
        <time>2012-03-17T11:10:13Z</time>
      </trkpt>
      <trkpt lat="59.5447624" lon="17.7391362">
        <ele>35</ele>
        <time>2012-03-17T11:10:20Z</time>
      </trkpt>
      <trkpt lat="59.5443588" lon="17.7392852">
        <ele>35.4</ele>
        <time>2012-03-17T11:10:27Z</time>
      </trkpt>
      <trkpt lat="59.5439776" lon="17.7394101">
        <ele>35.6</ele>
        <time>2012-03-17T11:10:33Z</time>
      </trkpt>
      <trkpt lat="59.5435989" lon="17.7395459">
        <ele>36.2</ele>
        <time>2012-03-17T11:10:39Z</time>
      </trkpt>
      <trkpt lat="59.543217" lon="17.7396893">
        <ele>37.2</ele>
        <time>2012-03-17T11:10:45Z</time>
      </trkpt>
      <trkpt lat="59.5428235" lon="17.7398489">
        <ele>38.2</ele>
        <time>2012-03-17T11:10:51Z</time>
      </trkpt>
      <trkpt lat="59.5424261" lon="17.739985">
        <ele>37.6</ele>
        <time>2012-03-17T11:10:57Z</time>
      </trkpt>
      <trkpt lat="59.5420335" lon="17.7401317">
        <ele>37.6</ele>
        <time>2012-03-17T11:11:03Z</time>
      </trkpt>
      <trkpt lat="59.5416394" lon="17.7402775">
        <ele>38.2</ele>
        <time>2012-03-17T11:11:09Z</time>
      </trkpt>
      <trkpt lat="59.5412483" lon="17.7404683">
        <ele>37.4</ele>
        <time>2012-03-17T11:11:15Z</time>
      </trkpt>
      <trkpt lat="59.5408715" lon="17.7406579">
        <ele>37.4</ele>
        <time>2012-03-17T11:11:21Z</time>
      </trkpt>
      <trkpt lat="59.5405062" lon="17.7408622">
        <ele>37.4</ele>
        <time>2012-03-17T11:11:27Z</time>
      </trkpt>
      <trkpt lat="59.5401147" lon="17.7411321">
        <ele>36.8</ele>
        <time>2012-03-17T11:11:34Z</time>
      </trkpt>
      <trkpt lat="59.5397688" lon="17.7413906">
        <ele>35.8</ele>
        <time>2012-03-17T11:11:40Z</time>
      </trkpt>
      <trkpt lat="59.5394039" lon="17.7417025">
        <ele>34.2</ele>
        <time>2012-03-17T11:11:46Z</time>
      </trkpt>
      <trkpt lat="59.539042" lon="17.7420068">
        <ele>34.4</ele>
        <time>2012-03-17T11:11:52Z</time>
      </trkpt>
      <trkpt lat="59.5386545" lon="17.7423488">
        <ele>33.8</ele>
        <time>2012-03-17T11:11:58Z</time>
      </trkpt>
      <trkpt lat="59.5383166" lon="17.742653">
        <ele>32.2</ele>
        <time>2012-03-17T11:12:03Z</time>
      </trkpt>
      <trkpt lat="59.5379581" lon="17.7429788">
        <ele>30.6</ele>
        <time>2012-03-17T11:12:08Z</time>
      </trkpt>
      <trkpt lat="59.5375999" lon="17.7433288">
        <ele>29.4</ele>
        <time>2012-03-17T11:12:13Z</time>
      </trkpt>
      <trkpt lat="59.5372221" lon="17.7437165">
        <ele>28.4</ele>
        <time>2012-03-17T11:12:18Z</time>
      </trkpt>
      <trkpt lat="59.5368336" lon="17.7441651">
        <ele>26.2</ele>
        <time>2012-03-17T11:12:23Z</time>
      </trkpt>
      <trkpt lat="59.5364557" lon="17.7446093">
        <ele>25</ele>
        <time>2012-03-17T11:12:28Z</time>
      </trkpt>
      <trkpt lat="59.5361071" lon="17.745015">
        <ele>27.2</ele>
        <time>2012-03-17T11:12:33Z</time>
      </trkpt>
      <trkpt lat="59.5357759" lon="17.7454039">
        <ele>28.2</ele>
        <time>2012-03-17T11:12:38Z</time>
      </trkpt>
      <trkpt lat="59.535462" lon="17.7457653">
        <ele>28.6</ele>
        <time>2012-03-17T11:12:43Z</time>
      </trkpt>
      <trkpt lat="59.5351191" lon="17.7461613">
        <ele>29</ele>
        <time>2012-03-17T11:12:49Z</time>
      </trkpt>
      <trkpt lat="59.5347768" lon="17.7465325">
        <ele>30</ele>
        <time>2012-03-17T11:12:55Z</time>
      </trkpt>
      <trkpt lat="59.534411" lon="17.746925">
        <ele>31.6</ele>
        <time>2012-03-17T11:13:01Z</time>
      </trkpt>
      <trkpt lat="59.534028" lon="17.7473048">
        <ele>32.4</ele>
        <time>2012-03-17T11:13:07Z</time>
      </trkpt>
      <trkpt lat="59.5337035" lon="17.747605">
        <ele>33.4</ele>
        <time>2012-03-17T11:13:12Z</time>
      </trkpt>
      <trkpt lat="59.533345" lon="17.7479155">
        <ele>33.4</ele>
        <time>2012-03-17T11:13:18Z</time>
      </trkpt>
      <trkpt lat="59.5329998" lon="17.748187">
        <ele>34</ele>
        <time>2012-03-17T11:13:24Z</time>
      </trkpt>
      <trkpt lat="59.5326552" lon="17.7484598">
        <ele>34</ele>
        <time>2012-03-17T11:13:30Z</time>
      </trkpt>
      <trkpt lat="59.5323111" lon="17.7487175">
        <ele>33.4</ele>
        <time>2012-03-17T11:13:36Z</time>
      </trkpt>
      <trkpt lat="59.5319146" lon="17.7489814">
        <ele>33.6</ele>
        <time>2012-03-17T11:13:42Z</time>
      </trkpt>
      <trkpt lat="59.5315086" lon="17.7492246">
        <ele>34.2</ele>
        <time>2012-03-17T11:13:48Z</time>
      </trkpt>
      <trkpt lat="59.5310978" lon="17.7494519">
        <ele>34.6</ele>
        <time>2012-03-17T11:13:54Z</time>
      </trkpt>
      <trkpt lat="59.5306881" lon="17.7496673">
        <ele>34.8</ele>
        <time>2012-03-17T11:14:00Z</time>
      </trkpt>
      <trkpt lat="59.5306226" lon="17.7497003">
        <ele>34.8</ele>
        <time>2012-03-17T11:14:01Z</time>
      </trkpt>
      <trkpt lat="59.5302804" lon="17.7498373">
        <ele>35</ele>
        <time>2012-03-17T11:14:06Z</time>
      </trkpt>
      <trkpt lat="59.5299235" lon="17.7499734">
        <ele>35</ele>
        <time>2012-03-17T11:14:11Z</time>
      </trkpt>
      <trkpt lat="59.529552" lon="17.7501009">
        <ele>34.8</ele>
        <time>2012-03-17T11:14:16Z</time>
      </trkpt>
      <trkpt lat="59.5291786" lon="17.7502155">
        <ele>34.4</ele>
        <time>2012-03-17T11:14:21Z</time>
      </trkpt>
      <trkpt lat="59.5288014" lon="17.7503273">
        <ele>33.8</ele>
        <time>2012-03-17T11:14:26Z</time>
      </trkpt>
      <trkpt lat="59.528406" lon="17.7504439">
        <ele>32.8</ele>
        <time>2012-03-17T11:14:31Z</time>
      </trkpt>
      <trkpt lat="59.5280097" lon="17.7505672">
        <ele>32</ele>
        <time>2012-03-17T11:14:36Z</time>
      </trkpt>
      <trkpt lat="59.5276114" lon="17.750712">
        <ele>31</ele>
        <time>2012-03-17T11:14:41Z</time>
      </trkpt>
      <trkpt lat="59.5271904" lon="17.7508893">
        <ele>29.6</ele>
        <time>2012-03-17T11:14:46Z</time>
      </trkpt>
      <trkpt lat="59.5267665" lon="17.7511137">
        <ele>28.6</ele>
        <time>2012-03-17T11:14:51Z</time>
      </trkpt>
      <trkpt lat="59.5263373" lon="17.7513706">
        <ele>27.2</ele>
        <time>2012-03-17T11:14:56Z</time>
      </trkpt>
      <trkpt lat="59.5259892" lon="17.7516141">
        <ele>26</ele>
        <time>2012-03-17T11:15:00Z</time>
      </trkpt>
      <trkpt lat="59.5255706" lon="17.7519295">
        <ele>24.6</ele>
        <time>2012-03-17T11:15:05Z</time>
      </trkpt>
      <trkpt lat="59.5251799" lon="17.7522937">
        <ele>23.6</ele>
        <time>2012-03-17T11:15:10Z</time>
      </trkpt>
      <trkpt lat="59.5248113" lon="17.7526401">
        <ele>22.6</ele>
        <time>2012-03-17T11:15:15Z</time>
      </trkpt>
      <trkpt lat="59.5244539" lon="17.7529876">
        <ele>22.2</ele>
        <time>2012-03-17T11:15:20Z</time>
      </trkpt>
      <trkpt lat="59.5241025" lon="17.7533908">
        <ele>22</ele>
        <time>2012-03-17T11:15:25Z</time>
      </trkpt>
      <trkpt lat="59.5237602" lon="17.7538051">
        <ele>21.2</ele>
        <time>2012-03-17T11:15:30Z</time>
      </trkpt>
      <trkpt lat="59.5234084" lon="17.7542275">
        <ele>20.2</ele>
        <time>2012-03-17T11:15:35Z</time>
      </trkpt>
      <trkpt lat="59.5230583" lon="17.7546513">
        <ele>19.4</ele>
        <time>2012-03-17T11:15:40Z</time>
      </trkpt>
      <trkpt lat="59.5227022" lon="17.7550786">
        <ele>19</ele>
        <time>2012-03-17T11:15:45Z</time>
      </trkpt>
      <trkpt lat="59.5223301" lon="17.7555021">
        <ele>17.6</ele>
        <time>2012-03-17T11:15:50Z</time>
      </trkpt>
      <trkpt lat="59.5219507" lon="17.7559129">
        <ele>15.8</ele>
        <time>2012-03-17T11:15:55Z</time>
      </trkpt>
      <trkpt lat="59.5215721" lon="17.7562683">
        <ele>15.4</ele>
        <time>2012-03-17T11:16:00Z</time>
      </trkpt>
      <trkpt lat="59.5212046" lon="17.7565619">
        <ele>15.8</ele>
        <time>2012-03-17T11:16:05Z</time>
      </trkpt>
      <trkpt lat="59.520835" lon="17.7568315">
        <ele>16</ele>
        <time>2012-03-17T11:16:10Z</time>
      </trkpt>
      <trkpt lat="59.520462" lon="17.7570647">
        <ele>16.2</ele>
        <time>2012-03-17T11:16:15Z</time>
      </trkpt>
      <trkpt lat="59.5200968" lon="17.757263">
        <ele>16.2</ele>
        <time>2012-03-17T11:16:20Z</time>
      </trkpt>
      <trkpt lat="59.5197369" lon="17.7574447">
        <ele>15.8</ele>
        <time>2012-03-17T11:16:25Z</time>
      </trkpt>
      <trkpt lat="59.5193829" lon="17.7576192">
        <ele>16</ele>
        <time>2012-03-17T11:16:30Z</time>
      </trkpt>
      <trkpt lat="59.5189814" lon="17.7578183">
        <ele>16.4</ele>
        <time>2012-03-17T11:16:36Z</time>
      </trkpt>
      <trkpt lat="59.5186381" lon="17.7579815">
        <ele>16.8</ele>
        <time>2012-03-17T11:16:41Z</time>
      </trkpt>
      <trkpt lat="59.5182195" lon="17.7581871">
        <ele>16.6</ele>
        <time>2012-03-17T11:16:47Z</time>
      </trkpt>
      <trkpt lat="59.5178109" lon="17.7583802">
        <ele>16.6</ele>
        <time>2012-03-17T11:16:53Z</time>
      </trkpt>
      <trkpt lat="59.5174011" lon="17.7585786">
        <ele>16.4</ele>
        <time>2012-03-17T11:16:59Z</time>
      </trkpt>
      <trkpt lat="59.5169861" lon="17.7587793">
        <ele>16.4</ele>
        <time>2012-03-17T11:17:05Z</time>
      </trkpt>
      <trkpt lat="59.5166325" lon="17.7589531">
        <ele>16.6</ele>
        <time>2012-03-17T11:17:10Z</time>
      </trkpt>
      <trkpt lat="59.5162274" lon="17.7591448">
        <ele>17</ele>
        <time>2012-03-17T11:17:16Z</time>
      </trkpt>
      <trkpt lat="59.5158513" lon="17.7593237">
        <ele>17.2</ele>
        <time>2012-03-17T11:17:22Z</time>
      </trkpt>
      <trkpt lat="59.5154516" lon="17.7595325">
        <ele>17</ele>
        <time>2012-03-17T11:17:29Z</time>
      </trkpt>
      <trkpt lat="59.5151274" lon="17.7596842">
        <ele>19.6</ele>
        <time>2012-03-17T11:17:35Z</time>
      </trkpt>
      <trkpt lat="59.5150774" lon="17.759701">
        <ele>19.4</ele>
        <time>2012-03-17T11:17:36Z</time>
      </trkpt>
      <trkpt lat="59.5146848" lon="17.759881">
        <ele>20.6</ele>
        <time>2012-03-17T11:17:43Z</time>
      </trkpt>
      <trkpt lat="59.5144483" lon="17.7599804">
        <ele>22.8</ele>
        <time>2012-03-17T11:17:47Z</time>
      </trkpt>
      <trkpt lat="59.5143196" lon="17.7598261">
        <ele>24.8</ele>
        <time>2012-03-17T11:17:50Z</time>
      </trkpt>
      <trkpt lat="59.5142705" lon="17.7595285">
        <ele>26.6</ele>
        <time>2012-03-17T11:17:53Z</time>
      </trkpt>
      <trkpt lat="59.514202" lon="17.7590973">
        <ele>28.6</ele>
        <time>2012-03-17T11:17:57Z</time>
      </trkpt>
      <trkpt lat="59.5140806" lon="17.7583684">
        <ele>32.4</ele>
        <time>2012-03-17T11:18:04Z</time>
      </trkpt>
      <trkpt lat="59.5139449" lon="17.7576852">
        <ele>35</ele>
        <time>2012-03-17T11:18:11Z</time>
      </trkpt>
      <trkpt lat="59.513794" lon="17.7570479">
        <ele>36</ele>
        <time>2012-03-17T11:18:18Z</time>
      </trkpt>
      <trkpt lat="59.5136303" lon="17.7563837">
        <ele>35.8</ele>
        <time>2012-03-17T11:18:25Z</time>
      </trkpt>
      <trkpt lat="59.5134829" lon="17.7558399">
        <ele>35.4</ele>
        <time>2012-03-17T11:18:31Z</time>
      </trkpt>
      <trkpt lat="59.5134547" lon="17.7557499">
        <ele>35.6</ele>
        <time>2012-03-17T11:18:32Z</time>
      </trkpt>
      <trkpt lat="59.5132524" lon="17.7551251">
        <ele>37.2</ele>
        <time>2012-03-17T11:18:39Z</time>
      </trkpt>
      <trkpt lat="59.513046" lon="17.7545216">
        <ele>38</ele>
        <time>2012-03-17T11:18:46Z</time>
      </trkpt>
      <trkpt lat="59.5128249" lon="17.7539332">
        <ele>38.4</ele>
        <time>2012-03-17T11:18:53Z</time>
      </trkpt>
      <trkpt lat="59.5125866" lon="17.7533303">
        <ele>40</ele>
        <time>2012-03-17T11:19:00Z</time>
      </trkpt>
      <trkpt lat="59.5124449" lon="17.7530089">
        <ele>40.2</ele>
        <time>2012-03-17T11:19:04Z</time>
      </trkpt>
      <trkpt lat="59.512325" lon="17.7527443">
        <ele>41.2</ele>
        <time>2012-03-17T11:19:07Z</time>
      </trkpt>
      <trkpt lat="59.5120734" lon="17.7522427">
        <ele>41.4</ele>
        <time>2012-03-17T11:19:13Z</time>
      </trkpt>
      <trkpt lat="59.5119863" lon="17.7520751">
        <ele>42</ele>
        <time>2012-03-17T11:19:15Z</time>
      </trkpt>
      <trkpt lat="59.5117811" lon="17.7516638">
        <ele>41.8</ele>
        <time>2012-03-17T11:19:20Z</time>
      </trkpt>
      <trkpt lat="59.5114668" lon="17.7511456">
        <ele>42.8</ele>
        <time>2012-03-17T11:19:27Z</time>
      </trkpt>
      <trkpt lat="59.5111504" lon="17.750648">
        <ele>43</ele>
        <time>2012-03-17T11:19:34Z</time>
      </trkpt>
      <trkpt lat="59.5108234" lon="17.7501717">
        <ele>43.8</ele>
        <time>2012-03-17T11:19:41Z</time>
      </trkpt>
      <trkpt lat="59.510483" lon="17.7497212">
        <ele>44.4</ele>
        <time>2012-03-17T11:19:48Z</time>
      </trkpt>
      <trkpt lat="59.5101293" lon="17.7493013">
        <ele>45</ele>
        <time>2012-03-17T11:19:55Z</time>
      </trkpt>
      <trkpt lat="59.5097629" lon="17.7489297">
        <ele>45.2</ele>
        <time>2012-03-17T11:20:02Z</time>
      </trkpt>
      <trkpt lat="59.509434" lon="17.7486174">
        <ele>45.4</ele>
        <time>2012-03-17T11:20:08Z</time>
      </trkpt>
      <trkpt lat="59.5090969" lon="17.7483351">
        <ele>45.2</ele>
        <time>2012-03-17T11:20:14Z</time>
      </trkpt>
      <trkpt lat="59.5087658" lon="17.7480603">
        <ele>45</ele>
        <time>2012-03-17T11:20:20Z</time>
      </trkpt>
      <trkpt lat="59.5084171" lon="17.7478203">
        <ele>45</ele>
        <time>2012-03-17T11:20:26Z</time>
      </trkpt>
      <trkpt lat="59.5080529" lon="17.7476118">
        <ele>45.4</ele>
        <time>2012-03-17T11:20:32Z</time>
      </trkpt>
      <trkpt lat="59.5076947" lon="17.7474476">
        <ele>45.4</ele>
        <time>2012-03-17T11:20:38Z</time>
      </trkpt>
      <trkpt lat="59.507331" lon="17.7472993">
        <ele>45.8</ele>
        <time>2012-03-17T11:20:44Z</time>
      </trkpt>
      <trkpt lat="59.5069553" lon="17.7471783">
        <ele>45.6</ele>
        <time>2012-03-17T11:20:50Z</time>
      </trkpt>
      <trkpt lat="59.5065788" lon="17.747102">
        <ele>45</ele>
        <time>2012-03-17T11:20:56Z</time>
      </trkpt>
      <trkpt lat="59.506201" lon="17.747041">
        <ele>45.2</ele>
        <time>2012-03-17T11:21:02Z</time>
      </trkpt>
      <trkpt lat="59.5058115" lon="17.7470033">
        <ele>44.2</ele>
        <time>2012-03-17T11:21:08Z</time>
      </trkpt>
      <trkpt lat="59.5054183" lon="17.7469705">
        <ele>43.6</ele>
        <time>2012-03-17T11:21:14Z</time>
      </trkpt>
      <trkpt lat="59.5050051" lon="17.7469604">
        <ele>42.8</ele>
        <time>2012-03-17T11:21:20Z</time>
      </trkpt>
      <trkpt lat="59.5045875" lon="17.7469348">
        <ele>42.2</ele>
        <time>2012-03-17T11:21:26Z</time>
      </trkpt>
      <trkpt lat="59.5041662" lon="17.7469039">
        <ele>41.6</ele>
        <time>2012-03-17T11:21:32Z</time>
      </trkpt>
      <trkpt lat="59.5037392" lon="17.7468808">
        <ele>41.2</ele>
        <time>2012-03-17T11:21:38Z</time>
      </trkpt>
      <trkpt lat="59.5033139" lon="17.7468732">
        <ele>40.8</ele>
        <time>2012-03-17T11:21:44Z</time>
      </trkpt>
      <trkpt lat="59.5029767" lon="17.7468425">
        <ele>40</ele>
        <time>2012-03-17T11:21:49Z</time>
      </trkpt>
      <trkpt lat="59.5029239" lon="17.7468125">
        <ele>39.8</ele>
        <time>2012-03-17T11:21:50Z</time>
      </trkpt>
      <trkpt lat="59.5026803" lon="17.7465401">
        <ele>39.2</ele>
        <time>2012-03-17T11:21:55Z</time>
      </trkpt>
      <trkpt lat="59.502558" lon="17.7465572">
        <ele>38.8</ele>
        <time>2012-03-17T11:21:57Z</time>
      </trkpt>
      <trkpt lat="59.5024265" lon="17.7466106">
        <ele>38.6</ele>
        <time>2012-03-17T11:21:59Z</time>
      </trkpt>
      <trkpt lat="59.5021441" lon="17.7465847">
        <ele>38.6</ele>
        <time>2012-03-17T11:22:03Z</time>
      </trkpt>
      <trkpt lat="59.5017701" lon="17.7465244">
        <ele>38.6</ele>
        <time>2012-03-17T11:22:08Z</time>
      </trkpt>
      <trkpt lat="59.5013458" lon="17.7464431">
        <ele>38.4</ele>
        <time>2012-03-17T11:22:13Z</time>
      </trkpt>
      <trkpt lat="59.5009771" lon="17.7463553">
        <ele>38.4</ele>
        <time>2012-03-17T11:22:17Z</time>
      </trkpt>
      <trkpt lat="59.5006139" lon="17.7462556">
        <ele>37.8</ele>
        <time>2012-03-17T11:22:21Z</time>
      </trkpt>
      <trkpt lat="59.5002161" lon="17.7461459">
        <ele>37.2</ele>
        <time>2012-03-17T11:22:26Z</time>
      </trkpt>
      <trkpt lat="59.4998478" lon="17.7460365">
        <ele>36.8</ele>
        <time>2012-03-17T11:22:31Z</time>
      </trkpt>
      <trkpt lat="59.4994765" lon="17.7458956">
        <ele>36.8</ele>
        <time>2012-03-17T11:22:36Z</time>
      </trkpt>
      <trkpt lat="59.4991182" lon="17.7457533">
        <ele>36.2</ele>
        <time>2012-03-17T11:22:41Z</time>
      </trkpt>
      <trkpt lat="59.4987527" lon="17.7455952">
        <ele>35.4</ele>
        <time>2012-03-17T11:22:46Z</time>
      </trkpt>
      <trkpt lat="59.4983171" lon="17.7453949">
        <ele>34</ele>
        <time>2012-03-17T11:22:52Z</time>
      </trkpt>
      <trkpt lat="59.4979028" lon="17.7451796">
        <ele>33</ele>
        <time>2012-03-17T11:22:57Z</time>
      </trkpt>
      <trkpt lat="59.4975098" lon="17.7449727">
        <ele>32.4</ele>
        <time>2012-03-17T11:23:02Z</time>
      </trkpt>
      <trkpt lat="59.4971333" lon="17.7447607">
        <ele>31.8</ele>
        <time>2012-03-17T11:23:07Z</time>
      </trkpt>
      <trkpt lat="59.4967476" lon="17.7445387">
        <ele>31.2</ele>
        <time>2012-03-17T11:23:12Z</time>
      </trkpt>
      <trkpt lat="59.4963606" lon="17.7443199">
        <ele>31</ele>
        <time>2012-03-17T11:23:16Z</time>
      </trkpt>
      <trkpt lat="59.4961259" lon="17.744173">
        <ele>30.6</ele>
        <time>2012-03-17T11:23:20Z</time>
      </trkpt>
      <trkpt lat="59.4960442" lon="17.7441273">
        <ele>29.8</ele>
        <time>2012-03-17T11:23:21Z</time>
      </trkpt>
      <trkpt lat="59.4956587" lon="17.7438798">
        <ele>29.8</ele>
        <time>2012-03-17T11:23:26Z</time>
      </trkpt>
      <trkpt lat="59.4952821" lon="17.7436189">
        <ele>29.8</ele>
        <time>2012-03-17T11:23:31Z</time>
      </trkpt>
      <trkpt lat="59.4949239" lon="17.7433419">
        <ele>29.8</ele>
        <time>2012-03-17T11:23:36Z</time>
      </trkpt>
      <trkpt lat="59.494592" lon="17.7430472">
        <ele>29.8</ele>
        <time>2012-03-17T11:23:41Z</time>
      </trkpt>
      <trkpt lat="59.494215" lon="17.7426779">
        <ele>30.2</ele>
        <time>2012-03-17T11:23:47Z</time>
      </trkpt>
      <trkpt lat="59.4938687" lon="17.7422479">
        <ele>31.6</ele>
        <time>2012-03-17T11:23:53Z</time>
      </trkpt>
      <trkpt lat="59.4935458" lon="17.7418236">
        <ele>33.6</ele>
        <time>2012-03-17T11:23:59Z</time>
      </trkpt>
      <trkpt lat="59.4932416" lon="17.7413614">
        <ele>35</ele>
        <time>2012-03-17T11:24:05Z</time>
      </trkpt>
      <trkpt lat="59.4929753" lon="17.7408711">
        <ele>35.2</ele>
        <time>2012-03-17T11:24:11Z</time>
      </trkpt>
      <trkpt lat="59.4927279" lon="17.7402437">
        <ele>36.4</ele>
        <time>2012-03-17T11:24:18Z</time>
      </trkpt>
      <trkpt lat="59.492521" lon="17.7396484">
        <ele>36</ele>
        <time>2012-03-17T11:24:24Z</time>
      </trkpt>
      <trkpt lat="59.4922982" lon="17.7389685">
        <ele>36.6</ele>
        <time>2012-03-17T11:24:31Z</time>
      </trkpt>
      <trkpt lat="59.4921252" lon="17.7383316">
        <ele>36</ele>
        <time>2012-03-17T11:24:38Z</time>
      </trkpt>
      <trkpt lat="59.4920661" lon="17.737964">
        <ele>36.4</ele>
        <time>2012-03-17T11:24:42Z</time>
      </trkpt>
      <trkpt lat="59.4920295" lon="17.7375915">
        <ele>36.2</ele>
        <time>2012-03-17T11:24:46Z</time>
      </trkpt>
      <trkpt lat="59.4918812" lon="17.7371631">
        <ele>35.6</ele>
        <time>2012-03-17T11:24:51Z</time>
      </trkpt>
      <trkpt lat="59.4918264" lon="17.7370014">
        <ele>35.6</ele>
        <time>2012-03-17T11:24:53Z</time>
      </trkpt>
      <trkpt lat="59.4916663" lon="17.7363229">
        <ele>35.8</ele>
        <time>2012-03-17T11:25:01Z</time>
      </trkpt>
      <trkpt lat="59.491545" lon="17.735681">
        <ele>37</ele>
        <time>2012-03-17T11:25:08Z</time>
      </trkpt>
      <trkpt lat="59.4914102" lon="17.7349651">
        <ele>38.4</ele>
        <time>2012-03-17T11:25:15Z</time>
      </trkpt>
      <trkpt lat="59.4912598" lon="17.7342611">
        <ele>37</ele>
        <time>2012-03-17T11:25:22Z</time>
      </trkpt>
      <trkpt lat="59.4911307" lon="17.7334796">
        <ele>40.8</ele>
        <time>2012-03-17T11:25:29Z</time>
      </trkpt>
      <trkpt lat="59.4910187" lon="17.7326818">
        <ele>42.4</ele>
        <time>2012-03-17T11:25:35Z</time>
      </trkpt>
      <trkpt lat="59.4908655" lon="17.7319457">
        <ele>42.4</ele>
        <time>2012-03-17T11:25:41Z</time>
      </trkpt>
      <trkpt lat="59.490677" lon="17.7312588">
        <ele>41.8</ele>
        <time>2012-03-17T11:25:47Z</time>
      </trkpt>
      <trkpt lat="59.4904729" lon="17.7306045">
        <ele>43</ele>
        <time>2012-03-17T11:25:53Z</time>
      </trkpt>
      <trkpt lat="59.4902266" lon="17.7299618">
        <ele>42.8</ele>
        <time>2012-03-17T11:25:59Z</time>
      </trkpt>
      <trkpt lat="59.4899191" lon="17.7293697">
        <ele>42.6</ele>
        <time>2012-03-17T11:26:05Z</time>
      </trkpt>
      <trkpt lat="59.4897058" lon="17.7290245">
        <ele>42</ele>
        <time>2012-03-17T11:26:09Z</time>
      </trkpt>
      <trkpt lat="59.4895829" lon="17.7288942">
        <ele>41.4</ele>
        <time>2012-03-17T11:26:11Z</time>
      </trkpt>
      <trkpt lat="59.4894641" lon="17.7287412">
        <ele>41.4</ele>
        <time>2012-03-17T11:26:13Z</time>
      </trkpt>
      <trkpt lat="59.4892349" lon="17.7284284">
        <ele>41.2</ele>
        <time>2012-03-17T11:26:17Z</time>
      </trkpt>
      <trkpt lat="59.4888805" lon="17.7280143">
        <ele>40</ele>
        <time>2012-03-17T11:26:23Z</time>
      </trkpt>
      <trkpt lat="59.4885089" lon="17.7276644">
        <ele>39.8</ele>
        <time>2012-03-17T11:26:29Z</time>
      </trkpt>
      <trkpt lat="59.4881268" lon="17.7273923">
        <ele>40.2</ele>
        <time>2012-03-17T11:26:35Z</time>
      </trkpt>
      <trkpt lat="59.4877493" lon="17.727207">
        <ele>39.8</ele>
        <time>2012-03-17T11:26:41Z</time>
      </trkpt>
      <trkpt lat="59.4873979" lon="17.7270159">
        <ele>39.6</ele>
        <time>2012-03-17T11:26:47Z</time>
      </trkpt>
      <trkpt lat="59.4870233" lon="17.7269545">
        <ele>40.6</ele>
        <time>2012-03-17T11:26:53Z</time>
      </trkpt>
      <trkpt lat="59.4866354" lon="17.7270225">
        <ele>41.2</ele>
        <time>2012-03-17T11:26:59Z</time>
      </trkpt>
      <trkpt lat="59.48625" lon="17.727103">
        <ele>42.6</ele>
        <time>2012-03-17T11:27:05Z</time>
      </trkpt>
      <trkpt lat="59.4858644" lon="17.7272208">
        <ele>43</ele>
        <time>2012-03-17T11:27:11Z</time>
      </trkpt>
      <trkpt lat="59.4854861" lon="17.7273586">
        <ele>43.8</ele>
        <time>2012-03-17T11:27:17Z</time>
      </trkpt>
      <trkpt lat="59.4851276" lon="17.7276198">
        <ele>44.8</ele>
        <time>2012-03-17T11:27:23Z</time>
      </trkpt>
      <trkpt lat="59.4847499" lon="17.7278985">
        <ele>45</ele>
        <time>2012-03-17T11:27:29Z</time>
      </trkpt>
      <trkpt lat="59.4846219" lon="17.7280094">
        <ele>44.4</ele>
        <time>2012-03-17T11:27:31Z</time>
      </trkpt>
      <trkpt lat="59.4843796" lon="17.7282736">
        <ele>43.2</ele>
        <time>2012-03-17T11:27:35Z</time>
      </trkpt>
      <trkpt lat="59.4840025" lon="17.728559">
        <ele>42.2</ele>
        <time>2012-03-17T11:27:41Z</time>
      </trkpt>
      <trkpt lat="59.4835886" lon="17.7287974">
        <ele>40</ele>
        <time>2012-03-17T11:27:47Z</time>
      </trkpt>
      <trkpt lat="59.4832034" lon="17.7289491">
        <ele>38</ele>
        <time>2012-03-17T11:27:52Z</time>
      </trkpt>
      <trkpt lat="59.4828004" lon="17.7290314">
        <ele>36.2</ele>
        <time>2012-03-17T11:27:57Z</time>
      </trkpt>
      <trkpt lat="59.4823699" lon="17.7290514">
        <ele>35.6</ele>
        <time>2012-03-17T11:28:02Z</time>
      </trkpt>
      <trkpt lat="59.4819987" lon="17.7290436">
        <ele>35.2</ele>
        <time>2012-03-17T11:28:06Z</time>
      </trkpt>
      <trkpt lat="59.4816079" lon="17.729033">
        <ele>33.2</ele>
        <time>2012-03-17T11:28:10Z</time>
      </trkpt>
      <trkpt lat="59.4812191" lon="17.7290121">
        <ele>31.4</ele>
        <time>2012-03-17T11:28:14Z</time>
      </trkpt>
      <trkpt lat="59.4811172" lon="17.7289885">
        <ele>30.8</ele>
        <time>2012-03-17T11:28:15Z</time>
      </trkpt>
      <trkpt lat="59.4809103" lon="17.7289253">
        <ele>29.6</ele>
        <time>2012-03-17T11:28:17Z</time>
      </trkpt>
      <trkpt lat="59.4808063" lon="17.7289141">
        <ele>29.2</ele>
        <time>2012-03-17T11:28:18Z</time>
      </trkpt>
      <trkpt lat="59.480378" lon="17.7289082">
        <ele>27.2</ele>
        <time>2012-03-17T11:28:22Z</time>
      </trkpt>
      <trkpt lat="59.4799351" lon="17.7289191">
        <ele>24.6</ele>
        <time>2012-03-17T11:28:26Z</time>
      </trkpt>
      <trkpt lat="59.4795013" lon="17.728939">
        <ele>22.2</ele>
        <time>2012-03-17T11:28:30Z</time>
      </trkpt>
      <trkpt lat="59.4790911" lon="17.7289367">
        <ele>20.2</ele>
        <time>2012-03-17T11:28:34Z</time>
      </trkpt>
      <trkpt lat="59.4789118" lon="17.7289103">
        <ele>19.4</ele>
        <time>2012-03-17T11:28:36Z</time>
      </trkpt>
      <trkpt lat="59.4786975" lon="17.7287492">
        <ele>19.6</ele>
        <time>2012-03-17T11:28:39Z</time>
      </trkpt>
      <trkpt lat="59.478504" lon="17.7291702">
        <ele>18</ele>
        <time>2012-03-17T11:28:45Z</time>
      </trkpt>
      <trkpt lat="59.4785534" lon="17.7294411">
        <ele>17.8</ele>
        <time>2012-03-17T11:28:47Z</time>
      </trkpt>
      <trkpt lat="59.4785763" lon="17.7295923">
        <ele>17.6</ele>
        <time>2012-03-17T11:28:48Z</time>
      </trkpt>
      <trkpt lat="59.4785974" lon="17.7299317">
        <ele>17.2</ele>
        <time>2012-03-17T11:28:50Z</time>
      </trkpt>
      <trkpt lat="59.4785979" lon="17.7306517">
        <ele>16</ele>
        <time>2012-03-17T11:28:54Z</time>
      </trkpt>
      <trkpt lat="59.4785699" lon="17.7315166">
        <ele>15</ele>
        <time>2012-03-17T11:28:59Z</time>
      </trkpt>
      <trkpt lat="59.478516" lon="17.7323444">
        <ele>14.2</ele>
        <time>2012-03-17T11:29:04Z</time>
      </trkpt>
      <trkpt lat="59.4784374" lon="17.7331258">
        <ele>13.2</ele>
        <time>2012-03-17T11:29:09Z</time>
      </trkpt>
      <trkpt lat="59.4783193" lon="17.7339494">
        <ele>12.2</ele>
        <time>2012-03-17T11:29:14Z</time>
      </trkpt>
      <trkpt lat="59.4781705" lon="17.734762">
        <ele>11</ele>
        <time>2012-03-17T11:29:19Z</time>
      </trkpt>
      <trkpt lat="59.4780005" lon="17.7355388">
        <ele>10.6</ele>
        <time>2012-03-17T11:29:24Z</time>
      </trkpt>
      <trkpt lat="59.4778003" lon="17.7363023">
        <ele>10.4</ele>
        <time>2012-03-17T11:29:29Z</time>
      </trkpt>
      <trkpt lat="59.4775828" lon="17.7370594">
        <ele>10.2</ele>
        <time>2012-03-17T11:29:34Z</time>
      </trkpt>
      <trkpt lat="59.4773537" lon="17.7377956">
        <ele>10.4</ele>
        <time>2012-03-17T11:29:39Z</time>
      </trkpt>
      <trkpt lat="59.4771329" lon="17.7384855">
        <ele>10.8</ele>
        <time>2012-03-17T11:29:44Z</time>
      </trkpt>
      <trkpt lat="59.4769274" lon="17.7391491">
        <ele>11.8</ele>
        <time>2012-03-17T11:29:49Z</time>
      </trkpt>
      <trkpt lat="59.4767426" lon="17.7397822">
        <ele>12.4</ele>
        <time>2012-03-17T11:29:54Z</time>
      </trkpt>
      <trkpt lat="59.4765703" lon="17.740495">
        <ele>13.8</ele>
        <time>2012-03-17T11:30:00Z</time>
      </trkpt>
      <trkpt lat="59.4764175" lon="17.7412176">
        <ele>15.2</ele>
        <time>2012-03-17T11:30:07Z</time>
      </trkpt>
      <trkpt lat="59.4762971" lon="17.7418888">
        <ele>16</ele>
        <time>2012-03-17T11:30:14Z</time>
      </trkpt>
      <trkpt lat="59.4762177" lon="17.742578">
        <ele>18.6</ele>
        <time>2012-03-17T11:30:21Z</time>
      </trkpt>
      <trkpt lat="59.4761492" lon="17.7433798">
        <ele>19.8</ele>
        <time>2012-03-17T11:30:28Z</time>
      </trkpt>
      <trkpt lat="59.476111" lon="17.7441129">
        <ele>20</ele>
        <time>2012-03-17T11:30:34Z</time>
      </trkpt>
      <trkpt lat="59.476125" lon="17.7448276">
        <ele>20.2</ele>
        <time>2012-03-17T11:30:40Z</time>
      </trkpt>
      <trkpt lat="59.4762085" lon="17.7455367">
        <ele>21.6</ele>
        <time>2012-03-17T11:30:46Z</time>
      </trkpt>
      <trkpt lat="59.4763214" lon="17.7462997">
        <ele>23.4</ele>
        <time>2012-03-17T11:30:53Z</time>
      </trkpt>
      <trkpt lat="59.4764592" lon="17.7470369">
        <ele>25.4</ele>
        <time>2012-03-17T11:31:00Z</time>
      </trkpt>
      <trkpt lat="59.4766368" lon="17.7477609">
        <ele>27.2</ele>
        <time>2012-03-17T11:31:07Z</time>
      </trkpt>
      <trkpt lat="59.4768154" lon="17.7484087">
        <ele>30.2</ele>
        <time>2012-03-17T11:31:13Z</time>
      </trkpt>
      <trkpt lat="59.4770552" lon="17.7490199">
        <ele>31.8</ele>
        <time>2012-03-17T11:31:20Z</time>
      </trkpt>
      <trkpt lat="59.4771121" lon="17.7493229">
        <ele>32.2</ele>
        <time>2012-03-17T11:31:23Z</time>
      </trkpt>
      <trkpt lat="59.4772729" lon="17.7496511">
        <ele>32.6</ele>
        <time>2012-03-17T11:31:27Z</time>
      </trkpt>
      <trkpt lat="59.4773185" lon="17.7497332">
        <ele>32.6</ele>
        <time>2012-03-17T11:31:28Z</time>
      </trkpt>
      <trkpt lat="59.4775392" lon="17.7503346">
        <ele>32.4</ele>
        <time>2012-03-17T11:31:33Z</time>
      </trkpt>
      <trkpt lat="59.4777631" lon="17.7509884">
        <ele>31.8</ele>
        <time>2012-03-17T11:31:37Z</time>
      </trkpt>
      <trkpt lat="59.4780189" lon="17.7516218">
        <ele>31.4</ele>
        <time>2012-03-17T11:31:41Z</time>
      </trkpt>
      <trkpt lat="59.478285" lon="17.7521657">
        <ele>30.4</ele>
        <time>2012-03-17T11:31:45Z</time>
      </trkpt>
      <trkpt lat="59.4785316" lon="17.752719">
        <ele>29.4</ele>
        <time>2012-03-17T11:31:49Z</time>
      </trkpt>
      <trkpt lat="59.4788223" lon="17.7534053">
        <ele>29.8</ele>
        <time>2012-03-17T11:31:54Z</time>
      </trkpt>
      <trkpt lat="59.4790786" lon="17.7540321">
        <ele>29.8</ele>
        <time>2012-03-17T11:31:59Z</time>
      </trkpt>
      <trkpt lat="59.4792864" lon="17.7545844">
        <ele>29.8</ele>
        <time>2012-03-17T11:32:04Z</time>
      </trkpt>
      <trkpt lat="59.4794981" lon="17.7551491">
        <ele>29.8</ele>
        <time>2012-03-17T11:32:10Z</time>
      </trkpt>
      <trkpt lat="59.4797371" lon="17.7557598">
        <ele>30.8</ele>
        <time>2012-03-17T11:32:17Z</time>
      </trkpt>
      <trkpt lat="59.4799599" lon="17.7563875">
        <ele>32.2</ele>
        <time>2012-03-17T11:32:23Z</time>
      </trkpt>
      <trkpt lat="59.4801943" lon="17.7569469">
        <ele>34.2</ele>
        <time>2012-03-17T11:32:28Z</time>
      </trkpt>
      <trkpt lat="59.4804409" lon="17.7575199">
        <ele>32.6</ele>
        <time>2012-03-17T11:32:34Z</time>
      </trkpt>
      <trkpt lat="59.4806895" lon="17.7580851">
        <ele>31.6</ele>
        <time>2012-03-17T11:32:40Z</time>
      </trkpt>
      <trkpt lat="59.4809231" lon="17.7586409">
        <ele>30.4</ele>
        <time>2012-03-17T11:32:46Z</time>
      </trkpt>
      <trkpt lat="59.4812115" lon="17.7591861">
        <ele>29.4</ele>
        <time>2012-03-17T11:32:52Z</time>
      </trkpt>
      <trkpt lat="59.4813405" lon="17.7593687">
        <ele>29</ele>
        <time>2012-03-17T11:32:54Z</time>
      </trkpt>
      <trkpt lat="59.4815652" lon="17.7595917">
        <ele>27.2</ele>
        <time>2012-03-17T11:32:57Z</time>
      </trkpt>
      <trkpt lat="59.4819807" lon="17.7598499">
        <ele>24</ele>
        <time>2012-03-17T11:33:02Z</time>
      </trkpt>
      <trkpt lat="59.4823535" lon="17.7599833">
        <ele>21.8</ele>
        <time>2012-03-17T11:33:06Z</time>
      </trkpt>
      <trkpt lat="59.4826298" lon="17.7601006">
        <ele>20.4</ele>
        <time>2012-03-17T11:33:09Z</time>
      </trkpt>
      <trkpt lat="59.4827123" lon="17.7601678">
        <ele>19.8</ele>
        <time>2012-03-17T11:33:10Z</time>
      </trkpt>
      <trkpt lat="59.4829477" lon="17.760453">
        <ele>18.6</ele>
        <time>2012-03-17T11:33:13Z</time>
      </trkpt>
      <trkpt lat="59.4830208" lon="17.7605647">
        <ele>18.4</ele>
        <time>2012-03-17T11:33:14Z</time>
      </trkpt>
      <trkpt lat="59.4832839" lon="17.7610936">
        <ele>18.8</ele>
        <time>2012-03-17T11:33:18Z</time>
      </trkpt>
      <trkpt lat="59.4834969" lon="17.7618251">
        <ele>18.4</ele>
        <time>2012-03-17T11:33:23Z</time>
      </trkpt>
      <trkpt lat="59.4835688" lon="17.7622441">
        <ele>19.4</ele>
        <time>2012-03-17T11:33:26Z</time>
      </trkpt>
      <trkpt lat="59.4835932" lon="17.7625171">
        <ele>19.8</ele>
        <time>2012-03-17T11:33:28Z</time>
      </trkpt>
      <trkpt lat="59.4835812" lon="17.7630078">
        <ele>21.2</ele>
        <time>2012-03-17T11:33:32Z</time>
      </trkpt>
      <trkpt lat="59.4835551" lon="17.763218">
        <ele>21.4</ele>
        <time>2012-03-17T11:33:34Z</time>
      </trkpt>
      <trkpt lat="59.48346" lon="17.7639727">
        <ele>24.4</ele>
        <time>2012-03-17T11:33:42Z</time>
      </trkpt>
      <trkpt lat="59.4834322" lon="17.7642286">
        <ele>25.8</ele>
        <time>2012-03-17T11:33:45Z</time>
      </trkpt>
      <trkpt lat="59.4833816" lon="17.7646923">
        <ele>29.4</ele>
        <time>2012-03-17T11:33:50Z</time>
      </trkpt>
      <trkpt lat="59.4833041" lon="17.7653672">
        <ele>32.6</ele>
        <time>2012-03-17T11:33:57Z</time>
      </trkpt>
      <trkpt lat="59.4832118" lon="17.7660945">
        <ele>36.8</ele>
        <time>2012-03-17T11:34:04Z</time>
      </trkpt>
      <trkpt lat="59.4831275" lon="17.7668104">
        <ele>42.2</ele>
        <time>2012-03-17T11:34:12Z</time>
      </trkpt>
      <trkpt lat="59.4830366" lon="17.7674998">
        <ele>42.4</ele>
        <time>2012-03-17T11:34:19Z</time>
      </trkpt>
      <trkpt lat="59.4829094" lon="17.7682613">
        <ele>44</ele>
        <time>2012-03-17T11:34:26Z</time>
      </trkpt>
      <trkpt lat="59.4828163" lon="17.7690135">
        <ele>46.2</ele>
        <time>2012-03-17T11:34:33Z</time>
      </trkpt>
      <trkpt lat="59.4827224" lon="17.7697395">
        <ele>47</ele>
        <time>2012-03-17T11:34:40Z</time>
      </trkpt>
      <trkpt lat="59.482638" lon="17.7704342">
        <ele>46.8</ele>
        <time>2012-03-17T11:34:47Z</time>
      </trkpt>
      <trkpt lat="59.482554" lon="17.7712113">
        <ele>45.8</ele>
        <time>2012-03-17T11:34:55Z</time>
      </trkpt>
      <trkpt lat="59.4824746" lon="17.7719481">
        <ele>47.2</ele>
        <time>2012-03-17T11:35:04Z</time>
      </trkpt>
      <trkpt lat="59.4823713" lon="17.7726644">
        <ele>47</ele>
        <time>2012-03-17T11:35:14Z</time>
      </trkpt>
      <trkpt lat="59.4822825" lon="17.7733715">
        <ele>47.2</ele>
        <time>2012-03-17T11:35:24Z</time>
      </trkpt>
      <trkpt lat="59.4822018" lon="17.7740625">
        <ele>49.4</ele>
        <time>2012-03-17T11:35:34Z</time>
      </trkpt>
      <trkpt lat="59.4821128" lon="17.7747572">
        <ele>49.6</ele>
        <time>2012-03-17T11:35:43Z</time>
      </trkpt>
      <trkpt lat="59.4820267" lon="17.7754544">
        <ele>48</ele>
        <time>2012-03-17T11:35:50Z</time>
      </trkpt>
      <trkpt lat="59.4819257" lon="17.7762008">
        <ele>47.2</ele>
        <time>2012-03-17T11:35:57Z</time>
      </trkpt>
      <trkpt lat="59.4818209" lon="17.7767727">
        <ele>46.4</ele>
        <time>2012-03-17T11:36:02Z</time>
      </trkpt>
      <trkpt lat="59.4817918" lon="17.776895">
        <ele>46.2</ele>
        <time>2012-03-17T11:36:03Z</time>
      </trkpt>
      <trkpt lat="59.4816351" lon="17.7775589">
        <ele>44.6</ele>
        <time>2012-03-17T11:36:08Z</time>
      </trkpt>
      <trkpt lat="59.481457" lon="17.7782776">
        <ele>42.2</ele>
        <time>2012-03-17T11:36:13Z</time>
      </trkpt>
      <trkpt lat="59.4812542" lon="17.7790582">
        <ele>40</ele>
        <time>2012-03-17T11:36:18Z</time>
      </trkpt>
      <trkpt lat="59.4810822" lon="17.7797314">
        <ele>38</ele>
        <time>2012-03-17T11:36:22Z</time>
      </trkpt>
      <trkpt lat="59.4809102" lon="17.7804185">
        <ele>36</ele>
        <time>2012-03-17T11:36:26Z</time>
      </trkpt>
      <trkpt lat="59.4807534" lon="17.7811234">
        <ele>34.6</ele>
        <time>2012-03-17T11:36:30Z</time>
      </trkpt>
      <trkpt lat="59.4805861" lon="17.7818341">
        <ele>34.2</ele>
        <time>2012-03-17T11:36:34Z</time>
      </trkpt>
      <trkpt lat="59.4804094" lon="17.7825174">
        <ele>33.6</ele>
        <time>2012-03-17T11:36:38Z</time>
      </trkpt>
      <trkpt lat="59.4802053" lon="17.783139">
        <ele>33</ele>
        <time>2012-03-17T11:36:42Z</time>
      </trkpt>
      <trkpt lat="59.4799291" lon="17.7838079">
        <ele>32</ele>
        <time>2012-03-17T11:36:47Z</time>
      </trkpt>
      <trkpt lat="59.4795994" lon="17.7844083">
        <ele>29.8</ele>
        <time>2012-03-17T11:36:52Z</time>
      </trkpt>
      <trkpt lat="59.4792853" lon="17.7848459">
        <ele>27.2</ele>
        <time>2012-03-17T11:36:56Z</time>
      </trkpt>
      <trkpt lat="59.4789434" lon="17.7852299">
        <ele>25</ele>
        <time>2012-03-17T11:37:00Z</time>
      </trkpt>
      <trkpt lat="59.4785984" lon="17.785539">
        <ele>24.2</ele>
        <time>2012-03-17T11:37:04Z</time>
      </trkpt>
      <trkpt lat="59.4782535" lon="17.7857702">
        <ele>22</ele>
        <time>2012-03-17T11:37:08Z</time>
      </trkpt>
      <trkpt lat="59.4779059" lon="17.7859626">
        <ele>19.6</ele>
        <time>2012-03-17T11:37:12Z</time>
      </trkpt>
      <trkpt lat="59.4774652" lon="17.7861327">
        <ele>17.6</ele>
        <time>2012-03-17T11:37:17Z</time>
      </trkpt>
      <trkpt lat="59.4770637" lon="17.7862555">
        <ele>17.2</ele>
        <time>2012-03-17T11:37:22Z</time>
      </trkpt>
      <trkpt lat="59.4766897" lon="17.7863689">
        <ele>18.2</ele>
        <time>2012-03-17T11:37:27Z</time>
      </trkpt>
      <trkpt lat="59.4763383" lon="17.7864768">
        <ele>18.8</ele>
        <time>2012-03-17T11:37:32Z</time>
      </trkpt>
      <trkpt lat="59.4759392" lon="17.7866023">
        <ele>19.2</ele>
        <time>2012-03-17T11:37:38Z</time>
      </trkpt>
      <trkpt lat="59.4755446" lon="17.7867433">
        <ele>19.2</ele>
        <time>2012-03-17T11:37:44Z</time>
      </trkpt>
      <trkpt lat="59.4751579" lon="17.7869118">
        <ele>17</ele>
        <time>2012-03-17T11:37:50Z</time>
      </trkpt>
      <trkpt lat="59.4747917" lon="17.7871048">
        <ele>19.2</ele>
        <time>2012-03-17T11:37:56Z</time>
      </trkpt>
      <trkpt lat="59.4744245" lon="17.7873755">
        <ele>23.6</ele>
        <time>2012-03-17T11:38:03Z</time>
      </trkpt>
      <trkpt lat="59.4740824" lon="17.7877205">
        <ele>28</ele>
        <time>2012-03-17T11:38:10Z</time>
      </trkpt>
      <trkpt lat="59.4738402" lon="17.7881711">
        <ele>31.8</ele>
        <time>2012-03-17T11:38:16Z</time>
      </trkpt>
      <trkpt lat="59.4738064" lon="17.7882686">
        <ele>31</ele>
        <time>2012-03-17T11:38:17Z</time>
      </trkpt>
      <trkpt lat="59.4736753" lon="17.788943">
        <ele>30.2</ele>
        <time>2012-03-17T11:38:24Z</time>
      </trkpt>
      <trkpt lat="59.4734972" lon="17.7896998">
        <ele>28</ele>
        <time>2012-03-17T11:38:31Z</time>
      </trkpt>
      <trkpt lat="59.4732821" lon="17.7903743">
        <ele>25</ele>
        <time>2012-03-17T11:38:36Z</time>
      </trkpt>
      <trkpt lat="59.473054" lon="17.7911418">
        <ele>21.2</ele>
        <time>2012-03-17T11:38:41Z</time>
      </trkpt>
      <trkpt lat="59.4729258" lon="17.7918297">
        <ele>19.6</ele>
        <time>2012-03-17T11:38:45Z</time>
      </trkpt>
      <trkpt lat="59.4727911" lon="17.7925964">
        <ele>19.4</ele>
        <time>2012-03-17T11:38:50Z</time>
      </trkpt>
      <trkpt lat="59.4726481" lon="17.7933435">
        <ele>19.2</ele>
        <time>2012-03-17T11:38:56Z</time>
      </trkpt>
      <trkpt lat="59.4725232" lon="17.7939826">
        <ele>18.4</ele>
        <time>2012-03-17T11:39:02Z</time>
      </trkpt>
      <trkpt lat="59.4724181" lon="17.7944013">
        <ele>19</ele>
        <time>2012-03-17T11:39:06Z</time>
      </trkpt>
      <trkpt lat="59.4722963" lon="17.7946517">
        <ele>19.2</ele>
        <time>2012-03-17T11:39:09Z</time>
      </trkpt>
      <trkpt lat="59.4721449" lon="17.7948166">
        <ele>19.8</ele>
        <time>2012-03-17T11:39:12Z</time>
      </trkpt>
      <trkpt lat="59.4719514" lon="17.7949627">
        <ele>21.2</ele>
        <time>2012-03-17T11:39:16Z</time>
      </trkpt>
      <trkpt lat="59.4716675" lon="17.7951686">
        <ele>22.4</ele>
        <time>2012-03-17T11:39:22Z</time>
      </trkpt>
      <trkpt lat="59.4715723" lon="17.7952524">
        <ele>22.6</ele>
        <time>2012-03-17T11:39:24Z</time>
      </trkpt>
      <trkpt lat="59.4712494" lon="17.7956273">
        <ele>23.6</ele>
        <time>2012-03-17T11:39:31Z</time>
      </trkpt>
      <trkpt lat="59.4709429" lon="17.7959494">
        <ele>26</ele>
        <time>2012-03-17T11:39:38Z</time>
      </trkpt>
      <trkpt lat="59.4705734" lon="17.7962607">
        <ele>25.6</ele>
        <time>2012-03-17T11:39:45Z</time>
      </trkpt>
      <trkpt lat="59.4702123" lon="17.7965759">
        <ele>26.2</ele>
        <time>2012-03-17T11:39:52Z</time>
      </trkpt>
      <trkpt lat="59.4698838" lon="17.7969689">
        <ele>27.2</ele>
        <time>2012-03-17T11:39:59Z</time>
      </trkpt>
      <trkpt lat="59.4695328" lon="17.7973766">
        <ele>26.8</ele>
        <time>2012-03-17T11:40:06Z</time>
      </trkpt>
      <trkpt lat="59.4691925" lon="17.7978174">
        <ele>24.6</ele>
        <time>2012-03-17T11:40:12Z</time>
      </trkpt>
      <trkpt lat="59.469092" lon="17.79802">
        <ele>24</ele>
        <time>2012-03-17T11:40:14Z</time>
      </trkpt>
      <trkpt lat="59.4689787" lon="17.798405">
        <ele>23.6</ele>
        <time>2012-03-17T11:40:17Z</time>
      </trkpt>
      <trkpt lat="59.4689613" lon="17.7991918">
        <ele>22.8</ele>
        <time>2012-03-17T11:40:22Z</time>
      </trkpt>
      <trkpt lat="59.469136" lon="17.7998087">
        <ele>20.2</ele>
        <time>2012-03-17T11:40:26Z</time>
      </trkpt>
      <trkpt lat="59.469199" lon="17.7999408">
        <ele>20.4</ele>
        <time>2012-03-17T11:40:27Z</time>
      </trkpt>
      <trkpt lat="59.4694194" lon="17.8004615">
        <ele>19.6</ele>
        <time>2012-03-17T11:40:31Z</time>
      </trkpt>
      <trkpt lat="59.4696745" lon="17.8009968">
        <ele>20.6</ele>
        <time>2012-03-17T11:40:36Z</time>
      </trkpt>
      <trkpt lat="59.469912" lon="17.801578">
        <ele>23</ele>
        <time>2012-03-17T11:40:42Z</time>
      </trkpt>
      <trkpt lat="59.4701024" lon="17.8021957">
        <ele>26</ele>
        <time>2012-03-17T11:40:49Z</time>
      </trkpt>
      <trkpt lat="59.4701399" lon="17.8026236">
        <ele>29.4</ele>
        <time>2012-03-17T11:40:53Z</time>
      </trkpt>
      <trkpt lat="59.4701234" lon="17.8029003">
        <ele>31.6</ele>
        <time>2012-03-17T11:40:55Z</time>
      </trkpt>
      <trkpt lat="59.4700798" lon="17.8031658">
        <ele>32.8</ele>
        <time>2012-03-17T11:40:57Z</time>
      </trkpt>
      <trkpt lat="59.4699753" lon="17.8036075">
        <ele>32</ele>
        <time>2012-03-17T11:41:01Z</time>
      </trkpt>
      <trkpt lat="59.4698207" lon="17.8042792">
        <ele>32.2</ele>
        <time>2012-03-17T11:41:07Z</time>
      </trkpt>
      <trkpt lat="59.4696575" lon="17.804934">
        <ele>35.2</ele>
        <time>2012-03-17T11:41:13Z</time>
      </trkpt>
      <trkpt lat="59.4695736" lon="17.8052346">
        <ele>37.2</ele>
        <time>2012-03-17T11:41:16Z</time>
      </trkpt>
      <trkpt lat="59.4694945" lon="17.8055428">
        <ele>39.2</ele>
        <time>2012-03-17T11:41:19Z</time>
      </trkpt>
      <trkpt lat="59.4693425" lon="17.8062592">
        <ele>44.4</ele>
        <time>2012-03-17T11:41:25Z</time>
      </trkpt>
      <trkpt lat="59.4691871" lon="17.8069057">
        <ele>43.6</ele>
        <time>2012-03-17T11:41:31Z</time>
      </trkpt>
      <trkpt lat="59.4690814" lon="17.8075831">
        <ele>43.2</ele>
        <time>2012-03-17T11:41:38Z</time>
      </trkpt>
      <trkpt lat="59.4689884" lon="17.8083475">
        <ele>43</ele>
        <time>2012-03-17T11:41:46Z</time>
      </trkpt>
      <trkpt lat="59.4689123" lon="17.8089899">
        <ele>44</ele>
        <time>2012-03-17T11:41:53Z</time>
      </trkpt>
      <trkpt lat="59.4688949" lon="17.8090658">
        <ele>44.4</ele>
        <time>2012-03-17T11:41:54Z</time>
      </trkpt>
      <trkpt lat="59.4688745" lon="17.8091352">
        <ele>44.6</ele>
        <time>2012-03-17T11:41:55Z</time>
      </trkpt>
      <trkpt lat="59.4686956" lon="17.8093883">
        <ele>45.8</ele>
        <time>2012-03-17T11:42:01Z</time>
      </trkpt>
      <trkpt lat="59.4686097" lon="17.809415">
        <ele>45.8</ele>
        <time>2012-03-17T11:42:03Z</time>
      </trkpt>
      <trkpt lat="59.4684138" lon="17.809401">
        <ele>44.8</ele>
        <time>2012-03-17T11:42:07Z</time>
      </trkpt>
      <trkpt lat="59.4682258" lon="17.8093489">
        <ele>44</ele>
        <time>2012-03-17T11:42:11Z</time>
      </trkpt>
      <trkpt lat="59.4681374" lon="17.8093334">
        <ele>43.8</ele>
        <time>2012-03-17T11:42:13Z</time>
      </trkpt>
      <trkpt lat="59.4678453" lon="17.8092744">
        <ele>43</ele>
        <time>2012-03-17T11:42:19Z</time>
      </trkpt>
      <trkpt lat="59.4674489" lon="17.8093126">
        <ele>42.8</ele>
        <time>2012-03-17T11:42:27Z</time>
      </trkpt>
      <trkpt lat="59.4671039" lon="17.8094789">
        <ele>44.8</ele>
        <time>2012-03-17T11:42:35Z</time>
      </trkpt>
      <trkpt lat="59.4667475" lon="17.809827">
        <ele>47.4</ele>
        <time>2012-03-17T11:42:44Z</time>
      </trkpt>
      <trkpt lat="59.466674" lon="17.8099368">
        <ele>47.6</ele>
        <time>2012-03-17T11:42:46Z</time>
      </trkpt>
      <trkpt lat="59.4665579" lon="17.8100845">
        <ele>47.8</ele>
        <time>2012-03-17T11:42:49Z</time>
      </trkpt>
      <trkpt lat="59.4664268" lon="17.8103263">
        <ele>47.2</ele>
        <time>2012-03-17T11:42:52Z</time>
      </trkpt>
      <trkpt lat="59.4661876" lon="17.8108873">
        <ele>48.6</ele>
        <time>2012-03-17T11:42:57Z</time>
      </trkpt>
      <trkpt lat="59.4659451" lon="17.8115308">
        <ele>51</ele>
        <time>2012-03-17T11:43:03Z</time>
      </trkpt>
      <trkpt lat="59.4657022" lon="17.8121595">
        <ele>52.2</ele>
        <time>2012-03-17T11:43:10Z</time>
      </trkpt>
      <trkpt lat="59.4654984" lon="17.812759">
        <ele>53</ele>
        <time>2012-03-17T11:43:17Z</time>
      </trkpt>
      <trkpt lat="59.4654639" lon="17.8128258">
        <ele>53</ele>
        <time>2012-03-17T11:43:18Z</time>
      </trkpt>
      <trkpt lat="59.4652012" lon="17.8127221">
        <ele>52.4</ele>
        <time>2012-03-17T11:43:24Z</time>
      </trkpt>
      <trkpt lat="59.4651606" lon="17.8126542">
        <ele>52.2</ele>
        <time>2012-03-17T11:43:25Z</time>
      </trkpt>
      <trkpt lat="59.4649335" lon="17.8120504">
        <ele>49.2</ele>
        <time>2012-03-17T11:43:32Z</time>
      </trkpt>
      <trkpt lat="59.4647328" lon="17.8113477">
        <ele>45.4</ele>
        <time>2012-03-17T11:43:39Z</time>
      </trkpt>
      <trkpt lat="59.4645549" lon="17.8106978">
        <ele>43.6</ele>
        <time>2012-03-17T11:43:45Z</time>
      </trkpt>
      <trkpt lat="59.464433" lon="17.8101471">
        <ele>42.4</ele>
        <time>2012-03-17T11:43:50Z</time>
      </trkpt>
      <trkpt lat="59.4644139" lon="17.8100321">
        <ele>42.2</ele>
        <time>2012-03-17T11:43:51Z</time>
      </trkpt>
      <trkpt lat="59.4643729" lon="17.8096638">
        <ele>41.8</ele>
        <time>2012-03-17T11:43:54Z</time>
      </trkpt>
      <trkpt lat="59.4643618" lon="17.8092722">
        <ele>42</ele>
        <time>2012-03-17T11:43:57Z</time>
      </trkpt>
      <trkpt lat="59.4643662" lon="17.8084864">
        <ele>43</ele>
        <time>2012-03-17T11:44:03Z</time>
      </trkpt>
      <trkpt lat="59.4643662" lon="17.8080982">
        <ele>43.2</ele>
        <time>2012-03-17T11:44:06Z</time>
      </trkpt>
      <trkpt lat="59.4643284" lon="17.8077239">
        <ele>43.8</ele>
        <time>2012-03-17T11:44:09Z</time>
      </trkpt>
      <trkpt lat="59.4641383" lon="17.807063">
        <ele>44.2</ele>
        <time>2012-03-17T11:44:15Z</time>
      </trkpt>
      <trkpt lat="59.4640006" lon="17.8068001">
        <ele>43.8</ele>
        <time>2012-03-17T11:44:18Z</time>
      </trkpt>
      <trkpt lat="59.4638325" lon="17.8066136">
        <ele>43</ele>
        <time>2012-03-17T11:44:21Z</time>
      </trkpt>
      <trkpt lat="59.4637729" lon="17.8065623">
        <ele>42.6</ele>
        <time>2012-03-17T11:44:22Z</time>
      </trkpt>
      <trkpt lat="59.4636511" lon="17.8064781">
        <ele>43</ele>
        <time>2012-03-17T11:44:24Z</time>
      </trkpt>
      <trkpt lat="59.4634596" lon="17.8064154">
        <ele>42.2</ele>
        <time>2012-03-17T11:44:27Z</time>
      </trkpt>
      <trkpt lat="59.4630697" lon="17.8063822">
        <ele>41.8</ele>
        <time>2012-03-17T11:44:33Z</time>
      </trkpt>
      <trkpt lat="59.4626837" lon="17.8064537">
        <ele>40.8</ele>
        <time>2012-03-17T11:44:39Z</time>
      </trkpt>
      <trkpt lat="59.4622754" lon="17.8066051">
        <ele>38.6</ele>
        <time>2012-03-17T11:44:45Z</time>
      </trkpt>
      <trkpt lat="59.4622088" lon="17.8066211">
        <ele>38.8</ele>
        <time>2012-03-17T11:44:46Z</time>
      </trkpt>
      <trkpt lat="59.4618796" lon="17.8066453">
        <ele>38.8</ele>
        <time>2012-03-17T11:44:51Z</time>
      </trkpt>
      <trkpt lat="59.4614975" lon="17.8067094">
        <ele>37.8</ele>
        <time>2012-03-17T11:44:57Z</time>
      </trkpt>
      <trkpt lat="59.4611685" lon="17.8067386">
        <ele>38.4</ele>
        <time>2012-03-17T11:45:02Z</time>
      </trkpt>
      <trkpt lat="59.460765" lon="17.8067701">
        <ele>38.6</ele>
        <time>2012-03-17T11:45:08Z</time>
      </trkpt>
      <trkpt lat="59.4603874" lon="17.8067597">
        <ele>36.8</ele>
        <time>2012-03-17T11:45:14Z</time>
      </trkpt>
      <trkpt lat="59.4600163" lon="17.8066904">
        <ele>37.4</ele>
        <time>2012-03-17T11:45:20Z</time>
      </trkpt>
      <trkpt lat="59.4595957" lon="17.8065967">
        <ele>40</ele>
        <time>2012-03-17T11:45:27Z</time>
      </trkpt>
      <trkpt lat="59.4591913" lon="17.806534">
        <ele>40.8</ele>
        <time>2012-03-17T11:45:34Z</time>
      </trkpt>
      <trkpt lat="59.4588038" lon="17.8064458">
        <ele>39.4</ele>
        <time>2012-03-17T11:45:40Z</time>
      </trkpt>
      <trkpt lat="59.458425" lon="17.8063619">
        <ele>36</ele>
        <time>2012-03-17T11:45:46Z</time>
      </trkpt>
      <trkpt lat="59.4580382" lon="17.8062071">
        <ele>35</ele>
        <time>2012-03-17T11:45:52Z</time>
      </trkpt>
      <trkpt lat="59.4576574" lon="17.806032">
        <ele>33.2</ele>
        <time>2012-03-17T11:45:58Z</time>
      </trkpt>
      <trkpt lat="59.4572938" lon="17.8058472">
        <ele>33</ele>
        <time>2012-03-17T11:46:05Z</time>
      </trkpt>
      <trkpt lat="59.4572622" lon="17.8058112">
        <ele>32.8</ele>
        <time>2012-03-17T11:46:06Z</time>
      </trkpt>
      <trkpt lat="59.4573228" lon="17.8053296">
        <ele>39</ele>
        <time>2012-03-17T11:46:15Z</time>
      </trkpt>
      <trkpt lat="59.4573569" lon="17.8052714">
        <ele>40</ele>
        <time>2012-03-17T11:46:16Z</time>
      </trkpt>
      <trkpt lat="59.4574523" lon="17.8050771">
        <ele>39.4</ele>
        <time>2012-03-17T11:46:19Z</time>
      </trkpt>
      <trkpt lat="59.4576788" lon="17.8047736">
        <ele>37.4</ele>
        <time>2012-03-17T11:46:24Z</time>
      </trkpt>
      <trkpt lat="59.4579361" lon="17.804521">
        <ele>35.6</ele>
        <time>2012-03-17T11:46:29Z</time>
      </trkpt>
      <trkpt lat="59.4580537" lon="17.8044697">
        <ele>35.2</ele>
        <time>2012-03-17T11:46:31Z</time>
      </trkpt>
      <trkpt lat="59.4583457" lon="17.8044314">
        <ele>33.8</ele>
        <time>2012-03-17T11:46:36Z</time>
      </trkpt>
    </trkseg>
  </trk>
</gpx>